<gpx creator="Cyclotour.ca" version="1.1" xmlns:gpsies="http://www.gpsies.com/GPX/1/0" xmlns:xsi="http://www.w3.org/2001/XMLSchema-instance" xmlns="http://www.topografix.com/GPX/1/1" xsi:schemaLocation="http://www.topografix.com/GPX/1/1 http://www.topografix.com/GPX/1/1/gpx.xsd http://www.gpsies.com/GPX/1/0 http://www.gpsies.com/gpsies.xsd">
<trk>
<name>Tour-des-Lacs   2022</name>
<trkseg>
<trkpt lat="46.500560000" lon="-72.831080000">
<ele>0</ele>
<time>2026-09-04T07:14:07Z</time>
</trkpt>
<trkpt lat="46.500980000" lon="-72.830400000">
<ele>0</ele>
<time>2026-09-04T07:14:08Z</time>
</trkpt>
<trkpt lat="46.501870000" lon="-72.828990000">
<ele>0</ele>
<time>2026-09-04T07:14:09Z</time>
</trkpt>
<trkpt lat="46.502260000" lon="-72.828410000">
<ele>0</ele>
<time>2026-09-04T07:14:10Z</time>
</trkpt>
<trkpt lat="46.502260000" lon="-72.828410000">
<ele>0</ele>
<time>2026-09-04T07:14:11Z</time>
</trkpt>
<trkpt lat="46.503430000" lon="-72.826800000">
<ele>0</ele>
<time>2026-09-04T07:14:12Z</time>
</trkpt>
<trkpt lat="46.503310000" lon="-72.826630000">
<ele>0</ele>
<time>2026-09-04T07:14:13Z</time>
</trkpt>
<trkpt lat="46.501700000" lon="-72.824450000">
<ele>0</ele>
<time>2026-09-04T07:14:14Z</time>
</trkpt>
<trkpt lat="46.500630000" lon="-72.822990000">
<ele>0</ele>
<time>2026-09-04T07:14:15Z</time>
</trkpt>
<trkpt lat="46.500050000" lon="-72.822200000">
<ele>0</ele>
<time>2026-09-04T07:14:16Z</time>
</trkpt>
<trkpt lat="46.499040000" lon="-72.820830000">
<ele>0</ele>
<time>2026-09-04T07:14:17Z</time>
</trkpt>
<trkpt lat="46.497440000" lon="-72.818600000">
<ele>0</ele>
<time>2026-09-04T07:14:18Z</time>
</trkpt>
<trkpt lat="46.497440000" lon="-72.818600000">
<ele>0</ele>
<time>2026-09-04T07:14:19Z</time>
</trkpt>
<trkpt lat="46.496560000" lon="-72.817390000">
<ele>0</ele>
<time>2026-09-04T07:14:20Z</time>
</trkpt>
<trkpt lat="46.495040000" lon="-72.815250000">
<ele>0</ele>
<time>2026-09-04T07:14:21Z</time>
</trkpt>
<trkpt lat="46.494440000" lon="-72.814420000">
<ele>0</ele>
<time>2026-09-04T07:14:22Z</time>
</trkpt>
<trkpt lat="46.496340000" lon="-72.811560000">
<ele>0</ele>
<time>2026-09-04T07:14:23Z</time>
</trkpt>
<trkpt lat="46.496340000" lon="-72.811560000">
<ele>0</ele>
<time>2026-09-04T07:14:24Z</time>
</trkpt>
<trkpt lat="46.500280000" lon="-72.805630000">
<ele>0</ele>
<time>2026-09-04T07:14:25Z</time>
</trkpt>
<trkpt lat="46.500830000" lon="-72.804770000">
<ele>0</ele>
<time>2026-09-04T07:14:26Z</time>
</trkpt>
<trkpt lat="46.501140000" lon="-72.804330000">
<ele>0</ele>
<time>2026-09-04T07:14:27Z</time>
</trkpt>
<trkpt lat="46.501790000" lon="-72.803410000">
<ele>0</ele>
<time>2026-09-04T07:14:28Z</time>
</trkpt>
<trkpt lat="46.502320000" lon="-72.802670000">
<ele>0</ele>
<time>2026-09-04T07:14:29Z</time>
</trkpt>
<trkpt lat="46.502580000" lon="-72.802310000">
<ele>0</ele>
<time>2026-09-04T07:14:30Z</time>
</trkpt>
<trkpt lat="46.503520000" lon="-72.801100000">
<ele>0</ele>
<time>2026-09-04T07:14:31Z</time>
</trkpt>
<trkpt lat="46.505390000" lon="-72.798650000">
<ele>0</ele>
<time>2026-09-04T07:14:32Z</time>
</trkpt>
<trkpt lat="46.505810000" lon="-72.798100000">
<ele>0</ele>
<time>2026-09-04T07:14:33Z</time>
</trkpt>
<trkpt lat="46.506270000" lon="-72.797650000">
<ele>0</ele>
<time>2026-09-04T07:14:34Z</time>
</trkpt>
<trkpt lat="46.506630000" lon="-72.797410000">
<ele>0</ele>
<time>2026-09-04T07:14:35Z</time>
</trkpt>
<trkpt lat="46.507440000" lon="-72.796870000">
<ele>0</ele>
<time>2026-09-04T07:14:36Z</time>
</trkpt>
<trkpt lat="46.507830000" lon="-72.796650000">
<ele>0</ele>
<time>2026-09-04T07:14:37Z</time>
</trkpt>
<trkpt lat="46.508430000" lon="-72.796250000">
<ele>0</ele>
<time>2026-09-04T07:14:38Z</time>
</trkpt>
<trkpt lat="46.509400000" lon="-72.795600000">
<ele>0</ele>
<time>2026-09-04T07:14:39Z</time>
</trkpt>
<trkpt lat="46.509740000" lon="-72.795370000">
<ele>0</ele>
<time>2026-09-04T07:14:40Z</time>
</trkpt>
<trkpt lat="46.509910000" lon="-72.795260000">
<ele>0</ele>
<time>2026-09-04T07:14:41Z</time>
</trkpt>
<trkpt lat="46.510200000" lon="-72.795120000">
<ele>0</ele>
<time>2026-09-04T07:14:42Z</time>
</trkpt>
<trkpt lat="46.510520000" lon="-72.795050000">
<ele>0</ele>
<time>2026-09-04T07:14:43Z</time>
</trkpt>
<trkpt lat="46.511090000" lon="-72.795000000">
<ele>0</ele>
<time>2026-09-04T07:14:44Z</time>
</trkpt>
<trkpt lat="46.511860000" lon="-72.794890000">
<ele>0</ele>
<time>2026-09-04T07:14:45Z</time>
</trkpt>
<trkpt lat="46.512910000" lon="-72.794760000">
<ele>0</ele>
<time>2026-09-04T07:14:46Z</time>
</trkpt>
<trkpt lat="46.513270000" lon="-72.794700000">
<ele>0</ele>
<time>2026-09-04T07:14:47Z</time>
</trkpt>
<trkpt lat="46.513450000" lon="-72.794680000">
<ele>0</ele>
<time>2026-09-04T07:14:48Z</time>
</trkpt>
<trkpt lat="46.514120000" lon="-72.794480000">
<ele>0</ele>
<time>2026-09-04T07:14:49Z</time>
</trkpt>
<trkpt lat="46.514810000" lon="-72.794230000">
<ele>0</ele>
<time>2026-09-04T07:14:50Z</time>
</trkpt>
<trkpt lat="46.515540000" lon="-72.793930000">
<ele>0</ele>
<time>2026-09-04T07:14:51Z</time>
</trkpt>
<trkpt lat="46.516300000" lon="-72.793580000">
<ele>0</ele>
<time>2026-09-04T07:14:52Z</time>
</trkpt>
<trkpt lat="46.516910000" lon="-72.793260000">
<ele>0</ele>
<time>2026-09-04T07:14:53Z</time>
</trkpt>
<trkpt lat="46.517780000" lon="-72.792850000">
<ele>0</ele>
<time>2026-09-04T07:14:54Z</time>
</trkpt>
<trkpt lat="46.518650000" lon="-72.792510000">
<ele>0</ele>
<time>2026-09-04T07:14:55Z</time>
</trkpt>
<trkpt lat="46.520760000" lon="-72.791830000">
<ele>0</ele>
<time>2026-09-04T07:14:56Z</time>
</trkpt>
<trkpt lat="46.520910000" lon="-72.791790000">
<ele>0</ele>
<time>2026-09-04T07:14:57Z</time>
</trkpt>
<trkpt lat="46.521090000" lon="-72.791760000">
<ele>0</ele>
<time>2026-09-04T07:14:58Z</time>
</trkpt>
<trkpt lat="46.521510000" lon="-72.791700000">
<ele>0</ele>
<time>2026-09-04T07:14:59Z</time>
</trkpt>
<trkpt lat="46.521710000" lon="-72.791680000">
<ele>0</ele>
<time>2026-09-04T07:15:00Z</time>
</trkpt>
<trkpt lat="46.521910000" lon="-72.791700000">
<ele>0</ele>
<time>2026-09-04T07:15:01Z</time>
</trkpt>
<trkpt lat="46.522460000" lon="-72.791780000">
<ele>0</ele>
<time>2026-09-04T07:15:02Z</time>
</trkpt>
<trkpt lat="46.522810000" lon="-72.791820000">
<ele>0</ele>
<time>2026-09-04T07:15:03Z</time>
</trkpt>
<trkpt lat="46.522970000" lon="-72.791810000">
<ele>0</ele>
<time>2026-09-04T07:15:04Z</time>
</trkpt>
<trkpt lat="46.523090000" lon="-72.791780000">
<ele>0</ele>
<time>2026-09-04T07:15:05Z</time>
</trkpt>
<trkpt lat="46.523670000" lon="-72.791610000">
<ele>0</ele>
<time>2026-09-04T07:15:06Z</time>
</trkpt>
<trkpt lat="46.524160000" lon="-72.791480000">
<ele>0</ele>
<time>2026-09-04T07:15:07Z</time>
</trkpt>
<trkpt lat="46.524430000" lon="-72.791440000">
<ele>0</ele>
<time>2026-09-04T07:15:08Z</time>
</trkpt>
<trkpt lat="46.524640000" lon="-72.791440000">
<ele>0</ele>
<time>2026-09-04T07:15:09Z</time>
</trkpt>
<trkpt lat="46.525050000" lon="-72.791490000">
<ele>0</ele>
<time>2026-09-04T07:15:10Z</time>
</trkpt>
<trkpt lat="46.525640000" lon="-72.791590000">
<ele>0</ele>
<time>2026-09-04T07:15:11Z</time>
</trkpt>
<trkpt lat="46.526870000" lon="-72.791990000">
<ele>0</ele>
<time>2026-09-04T07:15:12Z</time>
</trkpt>
<trkpt lat="46.527560000" lon="-72.792250000">
<ele>0</ele>
<time>2026-09-04T07:15:13Z</time>
</trkpt>
<trkpt lat="46.527910000" lon="-72.792400000">
<ele>0</ele>
<time>2026-09-04T07:15:14Z</time>
</trkpt>
<trkpt lat="46.528410000" lon="-72.792680000">
<ele>0</ele>
<time>2026-09-04T07:15:15Z</time>
</trkpt>
<trkpt lat="46.528820000" lon="-72.792980000">
<ele>0</ele>
<time>2026-09-04T07:15:16Z</time>
</trkpt>
<trkpt lat="46.528940000" lon="-72.793080000">
<ele>0</ele>
<time>2026-09-04T07:15:17Z</time>
</trkpt>
<trkpt lat="46.528940000" lon="-72.793080000">
<ele>0</ele>
<time>2026-09-04T07:15:18Z</time>
</trkpt>
<trkpt lat="46.529150000" lon="-72.793270000">
<ele>0</ele>
<time>2026-09-04T07:15:19Z</time>
</trkpt>
<trkpt lat="46.529300000" lon="-72.793470000">
<ele>0</ele>
<time>2026-09-04T07:15:20Z</time>
</trkpt>
<trkpt lat="46.529440000" lon="-72.793670000">
<ele>0</ele>
<time>2026-09-04T07:15:21Z</time>
</trkpt>
<trkpt lat="46.529500000" lon="-72.793760000">
<ele>0</ele>
<time>2026-09-04T07:15:22Z</time>
</trkpt>
<trkpt lat="46.529670000" lon="-72.794060000">
<ele>0</ele>
<time>2026-09-04T07:15:23Z</time>
</trkpt>
<trkpt lat="46.529760000" lon="-72.794300000">
<ele>0</ele>
<time>2026-09-04T07:15:24Z</time>
</trkpt>
<trkpt lat="46.529850000" lon="-72.794520000">
<ele>0</ele>
<time>2026-09-04T07:15:25Z</time>
</trkpt>
<trkpt lat="46.529310000" lon="-72.795090000">
<ele>0</ele>
<time>2026-09-04T07:15:26Z</time>
</trkpt>
<trkpt lat="46.529060000" lon="-72.795400000">
<ele>0</ele>
<time>2026-09-04T07:15:27Z</time>
</trkpt>
<trkpt lat="46.528530000" lon="-72.796180000">
<ele>0</ele>
<time>2026-09-04T07:15:28Z</time>
</trkpt>
<trkpt lat="46.528170000" lon="-72.796880000">
<ele>0</ele>
<time>2026-09-04T07:15:29Z</time>
</trkpt>
<trkpt lat="46.527890000" lon="-72.797570000">
<ele>0</ele>
<time>2026-09-04T07:15:30Z</time>
</trkpt>
<trkpt lat="46.527500000" lon="-72.798760000">
<ele>0</ele>
<time>2026-09-04T07:15:31Z</time>
</trkpt>
<trkpt lat="46.527290000" lon="-72.799500000">
<ele>0</ele>
<time>2026-09-04T07:15:32Z</time>
</trkpt>
<trkpt lat="46.527120000" lon="-72.800080000">
<ele>0</ele>
<time>2026-09-04T07:15:33Z</time>
</trkpt>
<trkpt lat="46.527180000" lon="-72.800230000">
<ele>0</ele>
<time>2026-09-04T07:15:34Z</time>
</trkpt>
<trkpt lat="46.527430000" lon="-72.800370000">
<ele>0</ele>
<time>2026-09-04T07:15:35Z</time>
</trkpt>
<trkpt lat="46.527650000" lon="-72.800440000">
<ele>0</ele>
<time>2026-09-04T07:15:36Z</time>
</trkpt>
<trkpt lat="46.527960000" lon="-72.800460000">
<ele>0</ele>
<time>2026-09-04T07:15:37Z</time>
</trkpt>
<trkpt lat="46.528200000" lon="-72.800460000">
<ele>0</ele>
<time>2026-09-04T07:15:38Z</time>
</trkpt>
<trkpt lat="46.528200000" lon="-72.800460000">
<ele>0</ele>
<time>2026-09-04T07:15:39Z</time>
</trkpt>
<trkpt lat="46.528810000" lon="-72.800460000">
<ele>0</ele>
<time>2026-09-04T07:15:40Z</time>
</trkpt>
<trkpt lat="46.530050000" lon="-72.800440000">
<ele>0</ele>
<time>2026-09-04T07:15:41Z</time>
</trkpt>
<trkpt lat="46.531310000" lon="-72.800420000">
<ele>0</ele>
<time>2026-09-04T07:15:42Z</time>
</trkpt>
<trkpt lat="46.531760000" lon="-72.800440000">
<ele>0</ele>
<time>2026-09-04T07:15:43Z</time>
</trkpt>
<trkpt lat="46.531910000" lon="-72.800470000">
<ele>0</ele>
<time>2026-09-04T07:15:44Z</time>
</trkpt>
<trkpt lat="46.532080000" lon="-72.800540000">
<ele>0</ele>
<time>2026-09-04T07:15:45Z</time>
</trkpt>
<trkpt lat="46.532210000" lon="-72.800620000">
<ele>0</ele>
<time>2026-09-04T07:15:46Z</time>
</trkpt>
<trkpt lat="46.532460000" lon="-72.800790000">
<ele>0</ele>
<time>2026-09-04T07:15:47Z</time>
</trkpt>
<trkpt lat="46.532700000" lon="-72.801120000">
<ele>0</ele>
<time>2026-09-04T07:15:48Z</time>
</trkpt>
<trkpt lat="46.533120000" lon="-72.801990000">
<ele>0</ele>
<time>2026-09-04T07:15:49Z</time>
</trkpt>
<trkpt lat="46.533520000" lon="-72.802850000">
<ele>0</ele>
<time>2026-09-04T07:15:50Z</time>
</trkpt>
<trkpt lat="46.533750000" lon="-72.803290000">
<ele>0</ele>
<time>2026-09-04T07:15:51Z</time>
</trkpt>
<trkpt lat="46.534050000" lon="-72.803830000">
<ele>0</ele>
<time>2026-09-04T07:15:52Z</time>
</trkpt>
<trkpt lat="46.534330000" lon="-72.804230000">
<ele>0</ele>
<time>2026-09-04T07:15:53Z</time>
</trkpt>
<trkpt lat="46.534380000" lon="-72.804300000">
<ele>0</ele>
<time>2026-09-04T07:15:54Z</time>
</trkpt>
<trkpt lat="46.534900000" lon="-72.804930000">
<ele>0</ele>
<time>2026-09-04T07:15:55Z</time>
</trkpt>
<trkpt lat="46.535640000" lon="-72.805610000">
<ele>0</ele>
<time>2026-09-04T07:15:56Z</time>
</trkpt>
<trkpt lat="46.536130000" lon="-72.805950000">
<ele>0</ele>
<time>2026-09-04T07:15:57Z</time>
</trkpt>
<trkpt lat="46.536490000" lon="-72.806130000">
<ele>0</ele>
<time>2026-09-04T07:15:58Z</time>
</trkpt>
<trkpt lat="46.537870000" lon="-72.806740000">
<ele>0</ele>
<time>2026-09-04T07:15:59Z</time>
</trkpt>
<trkpt lat="46.538730000" lon="-72.807140000">
<ele>0</ele>
<time>2026-09-04T07:16:00Z</time>
</trkpt>
<trkpt lat="46.539350000" lon="-72.807380000">
<ele>0</ele>
<time>2026-09-04T07:16:01Z</time>
</trkpt>
<trkpt lat="46.540420000" lon="-72.807810000">
<ele>0</ele>
<time>2026-09-04T07:16:02Z</time>
</trkpt>
<trkpt lat="46.540830000" lon="-72.807950000">
<ele>0</ele>
<time>2026-09-04T07:16:03Z</time>
</trkpt>
<trkpt lat="46.541490000" lon="-72.808120000">
<ele>0</ele>
<time>2026-09-04T07:16:04Z</time>
</trkpt>
<trkpt lat="46.543070000" lon="-72.808460000">
<ele>0</ele>
<time>2026-09-04T07:16:05Z</time>
</trkpt>
<trkpt lat="46.543420000" lon="-72.808510000">
<ele>0</ele>
<time>2026-09-04T07:16:06Z</time>
</trkpt>
<trkpt lat="46.543990000" lon="-72.808510000">
<ele>0</ele>
<time>2026-09-04T07:16:07Z</time>
</trkpt>
<trkpt lat="46.544360000" lon="-72.808430000">
<ele>0</ele>
<time>2026-09-04T07:16:08Z</time>
</trkpt>
<trkpt lat="46.544620000" lon="-72.808340000">
<ele>0</ele>
<time>2026-09-04T07:16:09Z</time>
</trkpt>
<trkpt lat="46.544870000" lon="-72.808180000">
<ele>0</ele>
<time>2026-09-04T07:16:10Z</time>
</trkpt>
<trkpt lat="46.545210000" lon="-72.807970000">
<ele>0</ele>
<time>2026-09-04T07:16:11Z</time>
</trkpt>
<trkpt lat="46.545560000" lon="-72.807650000">
<ele>0</ele>
<time>2026-09-04T07:16:12Z</time>
</trkpt>
<trkpt lat="46.545830000" lon="-72.807330000">
<ele>0</ele>
<time>2026-09-04T07:16:13Z</time>
</trkpt>
<trkpt lat="46.546260000" lon="-72.806730000">
<ele>0</ele>
<time>2026-09-04T07:16:14Z</time>
</trkpt>
<trkpt lat="46.546320000" lon="-72.806640000">
<ele>0</ele>
<time>2026-09-04T07:16:15Z</time>
</trkpt>
<trkpt lat="46.546650000" lon="-72.806200000">
<ele>0</ele>
<time>2026-09-04T07:16:16Z</time>
</trkpt>
<trkpt lat="46.546980000" lon="-72.805830000">
<ele>0</ele>
<time>2026-09-04T07:16:17Z</time>
</trkpt>
<trkpt lat="46.547300000" lon="-72.805510000">
<ele>0</ele>
<time>2026-09-04T07:16:18Z</time>
</trkpt>
<trkpt lat="46.547930000" lon="-72.805000000">
<ele>0</ele>
<time>2026-09-04T07:16:19Z</time>
</trkpt>
<trkpt lat="46.549490000" lon="-72.803750000">
<ele>0</ele>
<time>2026-09-04T07:16:20Z</time>
</trkpt>
<trkpt lat="46.549860000" lon="-72.803460000">
<ele>0</ele>
<time>2026-09-04T07:16:21Z</time>
</trkpt>
<trkpt lat="46.550310000" lon="-72.803010000">
<ele>0</ele>
<time>2026-09-04T07:16:22Z</time>
</trkpt>
<trkpt lat="46.550490000" lon="-72.802760000">
<ele>0</ele>
<time>2026-09-04T07:16:23Z</time>
</trkpt>
<trkpt lat="46.550750000" lon="-72.802310000">
<ele>0</ele>
<time>2026-09-04T07:16:24Z</time>
</trkpt>
<trkpt lat="46.550860000" lon="-72.802080000">
<ele>0</ele>
<time>2026-09-04T07:16:25Z</time>
</trkpt>
<trkpt lat="46.551040000" lon="-72.801430000">
<ele>0</ele>
<time>2026-09-04T07:16:26Z</time>
</trkpt>
<trkpt lat="46.551110000" lon="-72.801180000">
<ele>0</ele>
<time>2026-09-04T07:16:27Z</time>
</trkpt>
<trkpt lat="46.551360000" lon="-72.800200000">
<ele>0</ele>
<time>2026-09-04T07:16:28Z</time>
</trkpt>
<trkpt lat="46.551530000" lon="-72.799460000">
<ele>0</ele>
<time>2026-09-04T07:16:29Z</time>
</trkpt>
<trkpt lat="46.552010000" lon="-72.797470000">
<ele>0</ele>
<time>2026-09-04T07:16:30Z</time>
</trkpt>
<trkpt lat="46.552080000" lon="-72.797240000">
<ele>0</ele>
<time>2026-09-04T07:16:31Z</time>
</trkpt>
<trkpt lat="46.552270000" lon="-72.796760000">
<ele>0</ele>
<time>2026-09-04T07:16:32Z</time>
</trkpt>
<trkpt lat="46.552580000" lon="-72.796150000">
<ele>0</ele>
<time>2026-09-04T07:16:33Z</time>
</trkpt>
<trkpt lat="46.552970000" lon="-72.795570000">
<ele>0</ele>
<time>2026-09-04T07:16:34Z</time>
</trkpt>
<trkpt lat="46.553860000" lon="-72.794310000">
<ele>0</ele>
<time>2026-09-04T07:16:35Z</time>
</trkpt>
<trkpt lat="46.554330000" lon="-72.793640000">
<ele>0</ele>
<time>2026-09-04T07:16:36Z</time>
</trkpt>
<trkpt lat="46.554650000" lon="-72.793250000">
<ele>0</ele>
<time>2026-09-04T07:16:37Z</time>
</trkpt>
<trkpt lat="46.555100000" lon="-72.792690000">
<ele>0</ele>
<time>2026-09-04T07:16:38Z</time>
</trkpt>
<trkpt lat="46.555990000" lon="-72.791890000">
<ele>0</ele>
<time>2026-09-04T07:16:39Z</time>
</trkpt>
<trkpt lat="46.556350000" lon="-72.791510000">
<ele>0</ele>
<time>2026-09-04T07:16:40Z</time>
</trkpt>
<trkpt lat="46.556790000" lon="-72.790930000">
<ele>0</ele>
<time>2026-09-04T07:16:41Z</time>
</trkpt>
<trkpt lat="46.557340000" lon="-72.790050000">
<ele>0</ele>
<time>2026-09-04T07:16:42Z</time>
</trkpt>
<trkpt lat="46.557660000" lon="-72.789330000">
<ele>0</ele>
<time>2026-09-04T07:16:43Z</time>
</trkpt>
<trkpt lat="46.557930000" lon="-72.788560000">
<ele>0</ele>
<time>2026-09-04T07:16:44Z</time>
</trkpt>
<trkpt lat="46.558060000" lon="-72.788070000">
<ele>0</ele>
<time>2026-09-04T07:16:45Z</time>
</trkpt>
<trkpt lat="46.558200000" lon="-72.787310000">
<ele>0</ele>
<time>2026-09-04T07:16:46Z</time>
</trkpt>
<trkpt lat="46.558260000" lon="-72.786800000">
<ele>0</ele>
<time>2026-09-04T07:16:47Z</time>
</trkpt>
<trkpt lat="46.558370000" lon="-72.785230000">
<ele>0</ele>
<time>2026-09-04T07:16:48Z</time>
</trkpt>
<trkpt lat="46.558540000" lon="-72.781320000">
<ele>0</ele>
<time>2026-09-04T07:16:49Z</time>
</trkpt>
<trkpt lat="46.558680000" lon="-72.778450000">
<ele>0</ele>
<time>2026-09-04T07:16:50Z</time>
</trkpt>
<trkpt lat="46.558750000" lon="-72.777940000">
<ele>0</ele>
<time>2026-09-04T07:16:51Z</time>
</trkpt>
<trkpt lat="46.558810000" lon="-72.777690000">
<ele>0</ele>
<time>2026-09-04T07:16:52Z</time>
</trkpt>
<trkpt lat="46.559140000" lon="-72.776760000">
<ele>0</ele>
<time>2026-09-04T07:16:53Z</time>
</trkpt>
<trkpt lat="46.559230000" lon="-72.776540000">
<ele>0</ele>
<time>2026-09-04T07:16:54Z</time>
</trkpt>
<trkpt lat="46.559600000" lon="-72.775950000">
<ele>0</ele>
<time>2026-09-04T07:16:55Z</time>
</trkpt>
<trkpt lat="46.560040000" lon="-72.775380000">
<ele>0</ele>
<time>2026-09-04T07:16:56Z</time>
</trkpt>
<trkpt lat="46.560730000" lon="-72.774630000">
<ele>0</ele>
<time>2026-09-04T07:16:57Z</time>
</trkpt>
<trkpt lat="46.561260000" lon="-72.773990000">
<ele>0</ele>
<time>2026-09-04T07:16:58Z</time>
</trkpt>
<trkpt lat="46.561420000" lon="-72.773790000">
<ele>0</ele>
<time>2026-09-04T07:16:59Z</time>
</trkpt>
<trkpt lat="46.561670000" lon="-72.773490000">
<ele>0</ele>
<time>2026-09-04T07:17:00Z</time>
</trkpt>
<trkpt lat="46.563750000" lon="-72.770950000">
<ele>0</ele>
<time>2026-09-04T07:17:01Z</time>
</trkpt>
<trkpt lat="46.563910000" lon="-72.770750000">
<ele>0</ele>
<time>2026-09-04T07:17:02Z</time>
</trkpt>
<trkpt lat="46.564060000" lon="-72.770510000">
<ele>0</ele>
<time>2026-09-04T07:17:03Z</time>
</trkpt>
<trkpt lat="46.564210000" lon="-72.770210000">
<ele>0</ele>
<time>2026-09-04T07:17:04Z</time>
</trkpt>
<trkpt lat="46.564440000" lon="-72.769610000">
<ele>0</ele>
<time>2026-09-04T07:17:05Z</time>
</trkpt>
<trkpt lat="46.564580000" lon="-72.769000000">
<ele>0</ele>
<time>2026-09-04T07:17:06Z</time>
</trkpt>
<trkpt lat="46.564650000" lon="-72.768530000">
<ele>0</ele>
<time>2026-09-04T07:17:07Z</time>
</trkpt>
<trkpt lat="46.564660000" lon="-72.768350000">
<ele>0</ele>
<time>2026-09-04T07:17:08Z</time>
</trkpt>
<trkpt lat="46.564700000" lon="-72.768240000">
<ele>0</ele>
<time>2026-09-04T07:17:09Z</time>
</trkpt>
<trkpt lat="46.564770000" lon="-72.767970000">
<ele>0</ele>
<time>2026-09-04T07:17:10Z</time>
</trkpt>
<trkpt lat="46.564900000" lon="-72.767730000">
<ele>0</ele>
<time>2026-09-04T07:17:11Z</time>
</trkpt>
<trkpt lat="46.565080000" lon="-72.767570000">
<ele>0</ele>
<time>2026-09-04T07:17:12Z</time>
</trkpt>
<trkpt lat="46.566320000" lon="-72.766780000">
<ele>0</ele>
<time>2026-09-04T07:17:13Z</time>
</trkpt>
<trkpt lat="46.567570000" lon="-72.766000000">
<ele>0</ele>
<time>2026-09-04T07:17:14Z</time>
</trkpt>
<trkpt lat="46.568340000" lon="-72.765480000">
<ele>0</ele>
<time>2026-09-04T07:17:15Z</time>
</trkpt>
<trkpt lat="46.568750000" lon="-72.765050000">
<ele>0</ele>
<time>2026-09-04T07:17:16Z</time>
</trkpt>
<trkpt lat="46.569530000" lon="-72.764260000">
<ele>0</ele>
<time>2026-09-04T07:17:17Z</time>
</trkpt>
<trkpt lat="46.569930000" lon="-72.763860000">
<ele>0</ele>
<time>2026-09-04T07:17:18Z</time>
</trkpt>
<trkpt lat="46.570160000" lon="-72.763580000">
<ele>0</ele>
<time>2026-09-04T07:17:19Z</time>
</trkpt>
<trkpt lat="46.570420000" lon="-72.763330000">
<ele>0</ele>
<time>2026-09-04T07:17:20Z</time>
</trkpt>
<trkpt lat="46.570420000" lon="-72.763330000">
<ele>0</ele>
<time>2026-09-04T07:17:21Z</time>
</trkpt>
<trkpt lat="46.571590000" lon="-72.762170000">
<ele>0</ele>
<time>2026-09-04T07:17:22Z</time>
</trkpt>
<trkpt lat="46.572630000" lon="-72.761100000">
<ele>0</ele>
<time>2026-09-04T07:17:23Z</time>
</trkpt>
<trkpt lat="46.573020000" lon="-72.760660000">
<ele>0</ele>
<time>2026-09-04T07:17:24Z</time>
</trkpt>
<trkpt lat="46.573590000" lon="-72.760010000">
<ele>0</ele>
<time>2026-09-04T07:17:25Z</time>
</trkpt>
<trkpt lat="46.573890000" lon="-72.759720000">
<ele>0</ele>
<time>2026-09-04T07:17:26Z</time>
</trkpt>
<trkpt lat="46.573940000" lon="-72.759580000">
<ele>0</ele>
<time>2026-09-04T07:17:27Z</time>
</trkpt>
<trkpt lat="46.574010000" lon="-72.759460000">
<ele>0</ele>
<time>2026-09-04T07:17:28Z</time>
</trkpt>
<trkpt lat="46.574130000" lon="-72.759320000">
<ele>0</ele>
<time>2026-09-04T07:17:29Z</time>
</trkpt>
<trkpt lat="46.574190000" lon="-72.759290000">
<ele>0</ele>
<time>2026-09-04T07:17:30Z</time>
</trkpt>
<trkpt lat="46.575040000" lon="-72.758400000">
<ele>0</ele>
<time>2026-09-04T07:17:31Z</time>
</trkpt>
<trkpt lat="46.575040000" lon="-72.758400000">
<ele>0</ele>
<time>2026-09-04T07:17:32Z</time>
</trkpt>
<trkpt lat="46.575710000" lon="-72.757810000">
<ele>0</ele>
<time>2026-09-04T07:17:33Z</time>
</trkpt>
<trkpt lat="46.576320000" lon="-72.757260000">
<ele>0</ele>
<time>2026-09-04T07:17:34Z</time>
</trkpt>
<trkpt lat="46.577820000" lon="-72.755990000">
<ele>0</ele>
<time>2026-09-04T07:17:35Z</time>
</trkpt>
<trkpt lat="46.578240000" lon="-72.755720000">
<ele>0</ele>
<time>2026-09-04T07:17:36Z</time>
</trkpt>
<trkpt lat="46.578560000" lon="-72.755610000">
<ele>0</ele>
<time>2026-09-04T07:17:37Z</time>
</trkpt>
<trkpt lat="46.579410000" lon="-72.755380000">
<ele>0</ele>
<time>2026-09-04T07:17:38Z</time>
</trkpt>
<trkpt lat="46.580090000" lon="-72.755180000">
<ele>0</ele>
<time>2026-09-04T07:17:39Z</time>
</trkpt>
<trkpt lat="46.580290000" lon="-72.755140000">
<ele>0</ele>
<time>2026-09-04T07:17:40Z</time>
</trkpt>
<trkpt lat="46.580460000" lon="-72.755160000">
<ele>0</ele>
<time>2026-09-04T07:17:41Z</time>
</trkpt>
<trkpt lat="46.580650000" lon="-72.755200000">
<ele>0</ele>
<time>2026-09-04T07:17:42Z</time>
</trkpt>
<trkpt lat="46.581260000" lon="-72.755770000">
<ele>0</ele>
<time>2026-09-04T07:17:43Z</time>
</trkpt>
<trkpt lat="46.582020000" lon="-72.756550000">
<ele>0</ele>
<time>2026-09-04T07:17:44Z</time>
</trkpt>
<trkpt lat="46.582910000" lon="-72.758290000">
<ele>0</ele>
<time>2026-09-04T07:17:45Z</time>
</trkpt>
<trkpt lat="46.583350000" lon="-72.757840000">
<ele>0</ele>
<time>2026-09-04T07:17:46Z</time>
</trkpt>
<trkpt lat="46.583680000" lon="-72.757540000">
<ele>0</ele>
<time>2026-09-04T07:17:47Z</time>
</trkpt>
<trkpt lat="46.583820000" lon="-72.757440000">
<ele>0</ele>
<time>2026-09-04T07:17:48Z</time>
</trkpt>
<trkpt lat="46.583820000" lon="-72.757440000">
<ele>0</ele>
<time>2026-09-04T07:17:49Z</time>
</trkpt>
<trkpt lat="46.584100000" lon="-72.757270000">
<ele>0</ele>
<time>2026-09-04T07:17:50Z</time>
</trkpt>
<trkpt lat="46.584560000" lon="-72.757050000">
<ele>0</ele>
<time>2026-09-04T07:17:51Z</time>
</trkpt>
<trkpt lat="46.585300000" lon="-72.756730000">
<ele>0</ele>
<time>2026-09-04T07:17:52Z</time>
</trkpt>
<trkpt lat="46.586170000" lon="-72.756400000">
<ele>0</ele>
<time>2026-09-04T07:17:53Z</time>
</trkpt>
<trkpt lat="46.587570000" lon="-72.755960000">
<ele>0</ele>
<time>2026-09-04T07:17:54Z</time>
</trkpt>
<trkpt lat="46.587910000" lon="-72.756710000">
<ele>0</ele>
<time>2026-09-04T07:17:55Z</time>
</trkpt>
<trkpt lat="46.588080000" lon="-72.757080000">
<ele>0</ele>
<time>2026-09-04T07:17:56Z</time>
</trkpt>
<trkpt lat="46.588080000" lon="-72.757080000">
<ele>0</ele>
<time>2026-09-04T07:17:57Z</time>
</trkpt>
<trkpt lat="46.588530000" lon="-72.757950000">
<ele>0</ele>
<time>2026-09-04T07:17:58Z</time>
</trkpt>
<trkpt lat="46.588790000" lon="-72.758400000">
<ele>0</ele>
<time>2026-09-04T07:17:59Z</time>
</trkpt>
<trkpt lat="46.591050000" lon="-72.761810000">
<ele>0</ele>
<time>2026-09-04T07:18:00Z</time>
</trkpt>
<trkpt lat="46.593800000" lon="-72.765950000">
<ele>0</ele>
<time>2026-09-04T07:18:01Z</time>
</trkpt>
<trkpt lat="46.594300000" lon="-72.766710000">
<ele>0</ele>
<time>2026-09-04T07:18:02Z</time>
</trkpt>
<trkpt lat="46.594650000" lon="-72.767230000">
<ele>0</ele>
<time>2026-09-04T07:18:03Z</time>
</trkpt>
<trkpt lat="46.594780000" lon="-72.767480000">
<ele>0</ele>
<time>2026-09-04T07:18:04Z</time>
</trkpt>
<trkpt lat="46.595110000" lon="-72.768100000">
<ele>0</ele>
<time>2026-09-04T07:18:05Z</time>
</trkpt>
<trkpt lat="46.595470000" lon="-72.768700000">
<ele>0</ele>
<time>2026-09-04T07:18:06Z</time>
</trkpt>
<trkpt lat="46.595590000" lon="-72.768890000">
<ele>0</ele>
<time>2026-09-04T07:18:07Z</time>
</trkpt>
<trkpt lat="46.595900000" lon="-72.769260000">
<ele>0</ele>
<time>2026-09-04T07:18:08Z</time>
</trkpt>
<trkpt lat="46.596560000" lon="-72.770060000">
<ele>0</ele>
<time>2026-09-04T07:18:09Z</time>
</trkpt>
<trkpt lat="46.598700000" lon="-72.772610000">
<ele>0</ele>
<time>2026-09-04T07:18:10Z</time>
</trkpt>
<trkpt lat="46.600300000" lon="-72.774560000">
<ele>0</ele>
<time>2026-09-04T07:18:11Z</time>
</trkpt>
<trkpt lat="46.599940000" lon="-72.775150000">
<ele>0</ele>
<time>2026-09-04T07:18:12Z</time>
</trkpt>
<trkpt lat="46.599430000" lon="-72.776010000">
<ele>0</ele>
<time>2026-09-04T07:18:13Z</time>
</trkpt>
<trkpt lat="46.599430000" lon="-72.776010000">
<ele>0</ele>
<time>2026-09-04T07:18:14Z</time>
</trkpt>
<trkpt lat="46.599230000" lon="-72.776340000">
<ele>0</ele>
<time>2026-09-04T07:18:15Z</time>
</trkpt>
<trkpt lat="46.599040000" lon="-72.776650000">
<ele>0</ele>
<time>2026-09-04T07:18:16Z</time>
</trkpt>
<trkpt lat="46.598920000" lon="-72.776920000">
<ele>0</ele>
<time>2026-09-04T07:18:17Z</time>
</trkpt>
<trkpt lat="46.598830000" lon="-72.777300000">
<ele>0</ele>
<time>2026-09-04T07:18:18Z</time>
</trkpt>
<trkpt lat="46.598830000" lon="-72.777630000">
<ele>0</ele>
<time>2026-09-04T07:18:19Z</time>
</trkpt>
<trkpt lat="46.598870000" lon="-72.777950000">
<ele>0</ele>
<time>2026-09-04T07:18:20Z</time>
</trkpt>
<trkpt lat="46.598990000" lon="-72.778290000">
<ele>0</ele>
<time>2026-09-04T07:18:21Z</time>
</trkpt>
<trkpt lat="46.599180000" lon="-72.778750000">
<ele>0</ele>
<time>2026-09-04T07:18:22Z</time>
</trkpt>
<trkpt lat="46.599570000" lon="-72.779490000">
<ele>0</ele>
<time>2026-09-04T07:18:23Z</time>
</trkpt>
<trkpt lat="46.599760000" lon="-72.779950000">
<ele>0</ele>
<time>2026-09-04T07:18:24Z</time>
</trkpt>
<trkpt lat="46.600330000" lon="-72.781870000">
<ele>0</ele>
<time>2026-09-04T07:18:25Z</time>
</trkpt>
<trkpt lat="46.600680000" lon="-72.783150000">
<ele>0</ele>
<time>2026-09-04T07:18:26Z</time>
</trkpt>
<trkpt lat="46.600800000" lon="-72.783850000">
<ele>0</ele>
<time>2026-09-04T07:18:27Z</time>
</trkpt>
<trkpt lat="46.601010000" lon="-72.785740000">
<ele>0</ele>
<time>2026-09-04T07:18:28Z</time>
</trkpt>
<trkpt lat="46.601100000" lon="-72.786450000">
<ele>0</ele>
<time>2026-09-04T07:18:29Z</time>
</trkpt>
<trkpt lat="46.601120000" lon="-72.787150000">
<ele>0</ele>
<time>2026-09-04T07:18:30Z</time>
</trkpt>
<trkpt lat="46.601060000" lon="-72.787870000">
<ele>0</ele>
<time>2026-09-04T07:18:31Z</time>
</trkpt>
<trkpt lat="46.600930000" lon="-72.788680000">
<ele>0</ele>
<time>2026-09-04T07:18:32Z</time>
</trkpt>
<trkpt lat="46.600540000" lon="-72.790780000">
<ele>0</ele>
<time>2026-09-04T07:18:33Z</time>
</trkpt>
<trkpt lat="46.600290000" lon="-72.792000000">
<ele>0</ele>
<time>2026-09-04T07:18:34Z</time>
</trkpt>
<trkpt lat="46.600270000" lon="-72.792410000">
<ele>0</ele>
<time>2026-09-04T07:18:35Z</time>
</trkpt>
<trkpt lat="46.600260000" lon="-72.792640000">
<ele>0</ele>
<time>2026-09-04T07:18:36Z</time>
</trkpt>
<trkpt lat="46.600280000" lon="-72.792940000">
<ele>0</ele>
<time>2026-09-04T07:18:37Z</time>
</trkpt>
<trkpt lat="46.600320000" lon="-72.793190000">
<ele>0</ele>
<time>2026-09-04T07:18:38Z</time>
</trkpt>
<trkpt lat="46.600380000" lon="-72.793440000">
<ele>0</ele>
<time>2026-09-04T07:18:39Z</time>
</trkpt>
<trkpt lat="46.600530000" lon="-72.793910000">
<ele>0</ele>
<time>2026-09-04T07:18:40Z</time>
</trkpt>
<trkpt lat="46.600730000" lon="-72.794340000">
<ele>0</ele>
<time>2026-09-04T07:18:41Z</time>
</trkpt>
<trkpt lat="46.601200000" lon="-72.795140000">
<ele>0</ele>
<time>2026-09-04T07:18:42Z</time>
</trkpt>
<trkpt lat="46.601880000" lon="-72.796410000">
<ele>0</ele>
<time>2026-09-04T07:18:43Z</time>
</trkpt>
<trkpt lat="46.602010000" lon="-72.796660000">
<ele>0</ele>
<time>2026-09-04T07:18:44Z</time>
</trkpt>
<trkpt lat="46.602170000" lon="-72.797070000">
<ele>0</ele>
<time>2026-09-04T07:18:45Z</time>
</trkpt>
<trkpt lat="46.602210000" lon="-72.797340000">
<ele>0</ele>
<time>2026-09-04T07:18:46Z</time>
</trkpt>
<trkpt lat="46.602240000" lon="-72.797580000">
<ele>0</ele>
<time>2026-09-04T07:18:47Z</time>
</trkpt>
<trkpt lat="46.602250000" lon="-72.797840000">
<ele>0</ele>
<time>2026-09-04T07:18:48Z</time>
</trkpt>
<trkpt lat="46.602230000" lon="-72.798300000">
<ele>0</ele>
<time>2026-09-04T07:18:49Z</time>
</trkpt>
<trkpt lat="46.602160000" lon="-72.799010000">
<ele>0</ele>
<time>2026-09-04T07:18:50Z</time>
</trkpt>
<trkpt lat="46.602150000" lon="-72.799400000">
<ele>0</ele>
<time>2026-09-04T07:18:51Z</time>
</trkpt>
<trkpt lat="46.602160000" lon="-72.799800000">
<ele>0</ele>
<time>2026-09-04T07:18:52Z</time>
</trkpt>
<trkpt lat="46.602200000" lon="-72.800140000">
<ele>0</ele>
<time>2026-09-04T07:18:53Z</time>
</trkpt>
<trkpt lat="46.602290000" lon="-72.800500000">
<ele>0</ele>
<time>2026-09-04T07:18:54Z</time>
</trkpt>
<trkpt lat="46.602480000" lon="-72.801010000">
<ele>0</ele>
<time>2026-09-04T07:18:55Z</time>
</trkpt>
<trkpt lat="46.602750000" lon="-72.801690000">
<ele>0</ele>
<time>2026-09-04T07:18:56Z</time>
</trkpt>
<trkpt lat="46.603600000" lon="-72.803790000">
<ele>0</ele>
<time>2026-09-04T07:18:57Z</time>
</trkpt>
<trkpt lat="46.604220000" lon="-72.805280000">
<ele>0</ele>
<time>2026-09-04T07:18:58Z</time>
</trkpt>
<trkpt lat="46.604480000" lon="-72.805830000">
<ele>0</ele>
<time>2026-09-04T07:18:59Z</time>
</trkpt>
<trkpt lat="46.604720000" lon="-72.806290000">
<ele>0</ele>
<time>2026-09-04T07:19:00Z</time>
</trkpt>
<trkpt lat="46.604920000" lon="-72.806630000">
<ele>0</ele>
<time>2026-09-04T07:19:01Z</time>
</trkpt>
<trkpt lat="46.605170000" lon="-72.806960000">
<ele>0</ele>
<time>2026-09-04T07:19:02Z</time>
</trkpt>
<trkpt lat="46.605500000" lon="-72.807460000">
<ele>0</ele>
<time>2026-09-04T07:19:03Z</time>
</trkpt>
<trkpt lat="46.605890000" lon="-72.808010000">
<ele>0</ele>
<time>2026-09-04T07:19:04Z</time>
</trkpt>
<trkpt lat="46.606290000" lon="-72.808530000">
<ele>0</ele>
<time>2026-09-04T07:19:05Z</time>
</trkpt>
<trkpt lat="46.606520000" lon="-72.808810000">
<ele>0</ele>
<time>2026-09-04T07:19:06Z</time>
</trkpt>
<trkpt lat="46.606680000" lon="-72.809080000">
<ele>0</ele>
<time>2026-09-04T07:19:07Z</time>
</trkpt>
<trkpt lat="46.606930000" lon="-72.809460000">
<ele>0</ele>
<time>2026-09-04T07:19:08Z</time>
</trkpt>
<trkpt lat="46.607140000" lon="-72.809920000">
<ele>0</ele>
<time>2026-09-04T07:19:09Z</time>
</trkpt>
<trkpt lat="46.607500000" lon="-72.810790000">
<ele>0</ele>
<time>2026-09-04T07:19:10Z</time>
</trkpt>
<trkpt lat="46.607830000" lon="-72.811720000">
<ele>0</ele>
<time>2026-09-04T07:19:11Z</time>
</trkpt>
<trkpt lat="46.608160000" lon="-72.812650000">
<ele>0</ele>
<time>2026-09-04T07:19:12Z</time>
</trkpt>
<trkpt lat="46.608320000" lon="-72.813080000">
<ele>0</ele>
<time>2026-09-04T07:19:13Z</time>
</trkpt>
<trkpt lat="46.608350000" lon="-72.813270000">
<ele>0</ele>
<time>2026-09-04T07:19:14Z</time>
</trkpt>
<trkpt lat="46.608350000" lon="-72.813580000">
<ele>0</ele>
<time>2026-09-04T07:19:15Z</time>
</trkpt>
<trkpt lat="46.608480000" lon="-72.813860000">
<ele>0</ele>
<time>2026-09-04T07:19:16Z</time>
</trkpt>
<trkpt lat="46.608640000" lon="-72.814150000">
<ele>0</ele>
<time>2026-09-04T07:19:17Z</time>
</trkpt>
<trkpt lat="46.608890000" lon="-72.814830000">
<ele>0</ele>
<time>2026-09-04T07:19:18Z</time>
</trkpt>
<trkpt lat="46.608630000" lon="-72.815100000">
<ele>0</ele>
<time>2026-09-04T07:19:19Z</time>
</trkpt>
<trkpt lat="46.608370000" lon="-72.815550000">
<ele>0</ele>
<time>2026-09-04T07:19:20Z</time>
</trkpt>
<trkpt lat="46.608260000" lon="-72.815740000">
<ele>0</ele>
<time>2026-09-04T07:19:21Z</time>
</trkpt>
<trkpt lat="46.608260000" lon="-72.815740000">
<ele>0</ele>
<time>2026-09-04T07:19:22Z</time>
</trkpt>
<trkpt lat="46.607900000" lon="-72.816340000">
<ele>0</ele>
<time>2026-09-04T07:19:23Z</time>
</trkpt>
<trkpt lat="46.607610000" lon="-72.816840000">
<ele>0</ele>
<time>2026-09-04T07:19:24Z</time>
</trkpt>
<trkpt lat="46.606920000" lon="-72.818130000">
<ele>0</ele>
<time>2026-09-04T07:19:25Z</time>
</trkpt>
<trkpt lat="46.606140000" lon="-72.819570000">
<ele>0</ele>
<time>2026-09-04T07:19:26Z</time>
</trkpt>
<trkpt lat="46.605920000" lon="-72.819980000">
<ele>0</ele>
<time>2026-09-04T07:19:27Z</time>
</trkpt>
<trkpt lat="46.605480000" lon="-72.820810000">
<ele>0</ele>
<time>2026-09-04T07:19:28Z</time>
</trkpt>
<trkpt lat="46.605120000" lon="-72.821560000">
<ele>0</ele>
<time>2026-09-04T07:19:29Z</time>
</trkpt>
<trkpt lat="46.604950000" lon="-72.821900000">
<ele>0</ele>
<time>2026-09-04T07:19:30Z</time>
</trkpt>
<trkpt lat="46.604620000" lon="-72.822650000">
<ele>0</ele>
<time>2026-09-04T07:19:31Z</time>
</trkpt>
<trkpt lat="46.604210000" lon="-72.823810000">
<ele>0</ele>
<time>2026-09-04T07:19:32Z</time>
</trkpt>
<trkpt lat="46.603980000" lon="-72.824460000">
<ele>0</ele>
<time>2026-09-04T07:19:33Z</time>
</trkpt>
<trkpt lat="46.603830000" lon="-72.824840000">
<ele>0</ele>
<time>2026-09-04T07:19:34Z</time>
</trkpt>
<trkpt lat="46.603560000" lon="-72.825370000">
<ele>0</ele>
<time>2026-09-04T07:19:35Z</time>
</trkpt>
<trkpt lat="46.603230000" lon="-72.825980000">
<ele>0</ele>
<time>2026-09-04T07:19:36Z</time>
</trkpt>
<trkpt lat="46.602290000" lon="-72.827560000">
<ele>0</ele>
<time>2026-09-04T07:19:37Z</time>
</trkpt>
<trkpt lat="46.601370000" lon="-72.829170000">
<ele>0</ele>
<time>2026-09-04T07:19:38Z</time>
</trkpt>
<trkpt lat="46.600680000" lon="-72.830370000">
<ele>0</ele>
<time>2026-09-04T07:19:39Z</time>
</trkpt>
<trkpt lat="46.600570000" lon="-72.830610000">
<ele>0</ele>
<time>2026-09-04T07:19:40Z</time>
</trkpt>
<trkpt lat="46.600570000" lon="-72.830800000">
<ele>0</ele>
<time>2026-09-04T07:19:41Z</time>
</trkpt>
<trkpt lat="46.600480000" lon="-72.831550000">
<ele>0</ele>
<time>2026-09-04T07:19:42Z</time>
</trkpt>
<trkpt lat="46.600250000" lon="-72.832270000">
<ele>0</ele>
<time>2026-09-04T07:19:43Z</time>
</trkpt>
<trkpt lat="46.599290000" lon="-72.834070000">
<ele>0</ele>
<time>2026-09-04T07:19:44Z</time>
</trkpt>
<trkpt lat="46.599130000" lon="-72.834400000">
<ele>0</ele>
<time>2026-09-04T07:19:45Z</time>
</trkpt>
<trkpt lat="46.599130000" lon="-72.834520000">
<ele>0</ele>
<time>2026-09-04T07:19:46Z</time>
</trkpt>
<trkpt lat="46.599200000" lon="-72.834680000">
<ele>0</ele>
<time>2026-09-04T07:19:47Z</time>
</trkpt>
<trkpt lat="46.599360000" lon="-72.835140000">
<ele>0</ele>
<time>2026-09-04T07:19:48Z</time>
</trkpt>
<trkpt lat="46.599390000" lon="-72.835750000">
<ele>0</ele>
<time>2026-09-04T07:19:49Z</time>
</trkpt>
<trkpt lat="46.599320000" lon="-72.836610000">
<ele>0</ele>
<time>2026-09-04T07:19:50Z</time>
</trkpt>
<trkpt lat="46.599320000" lon="-72.836610000">
<ele>0</ele>
<time>2026-09-04T07:19:51Z</time>
</trkpt>
<trkpt lat="46.599180000" lon="-72.838230000">
<ele>0</ele>
<time>2026-09-04T07:19:52Z</time>
</trkpt>
<trkpt lat="46.599100000" lon="-72.838790000">
<ele>0</ele>
<time>2026-09-04T07:19:53Z</time>
</trkpt>
<trkpt lat="46.599030000" lon="-72.839770000">
<ele>0</ele>
<time>2026-09-04T07:19:54Z</time>
</trkpt>
<trkpt lat="46.599000000" lon="-72.840280000">
<ele>0</ele>
<time>2026-09-04T07:19:55Z</time>
</trkpt>
<trkpt lat="46.598960000" lon="-72.840530000">
<ele>0</ele>
<time>2026-09-04T07:19:56Z</time>
</trkpt>
<trkpt lat="46.599080000" lon="-72.840770000">
<ele>0</ele>
<time>2026-09-04T07:19:57Z</time>
</trkpt>
<trkpt lat="46.599290000" lon="-72.841310000">
<ele>0</ele>
<time>2026-09-04T07:19:58Z</time>
</trkpt>
<trkpt lat="46.599400000" lon="-72.841640000">
<ele>0</ele>
<time>2026-09-04T07:19:59Z</time>
</trkpt>
<trkpt lat="46.599480000" lon="-72.841960000">
<ele>0</ele>
<time>2026-09-04T07:20:00Z</time>
</trkpt>
<trkpt lat="46.599550000" lon="-72.842350000">
<ele>0</ele>
<time>2026-09-04T07:20:01Z</time>
</trkpt>
<trkpt lat="46.599600000" lon="-72.842770000">
<ele>0</ele>
<time>2026-09-04T07:20:02Z</time>
</trkpt>
<trkpt lat="46.599620000" lon="-72.843090000">
<ele>0</ele>
<time>2026-09-04T07:20:03Z</time>
</trkpt>
<trkpt lat="46.599630000" lon="-72.843790000">
<ele>0</ele>
<time>2026-09-04T07:20:04Z</time>
</trkpt>
<trkpt lat="46.599420000" lon="-72.845830000">
<ele>0</ele>
<time>2026-09-04T07:20:05Z</time>
</trkpt>
<trkpt lat="46.599300000" lon="-72.846890000">
<ele>0</ele>
<time>2026-09-04T07:20:06Z</time>
</trkpt>
<trkpt lat="46.599220000" lon="-72.847770000">
<ele>0</ele>
<time>2026-09-04T07:20:07Z</time>
</trkpt>
<trkpt lat="46.599180000" lon="-72.848560000">
<ele>0</ele>
<time>2026-09-04T07:20:08Z</time>
</trkpt>
<trkpt lat="46.599180000" lon="-72.849360000">
<ele>0</ele>
<time>2026-09-04T07:20:09Z</time>
</trkpt>
<trkpt lat="46.599220000" lon="-72.850280000">
<ele>0</ele>
<time>2026-09-04T07:20:10Z</time>
</trkpt>
<trkpt lat="46.599280000" lon="-72.851040000">
<ele>0</ele>
<time>2026-09-04T07:20:11Z</time>
</trkpt>
<trkpt lat="46.599370000" lon="-72.851740000">
<ele>0</ele>
<time>2026-09-04T07:20:12Z</time>
</trkpt>
<trkpt lat="46.599550000" lon="-72.852840000">
<ele>0</ele>
<time>2026-09-04T07:20:13Z</time>
</trkpt>
<trkpt lat="46.599870000" lon="-72.854650000">
<ele>0</ele>
<time>2026-09-04T07:20:14Z</time>
</trkpt>
<trkpt lat="46.600270000" lon="-72.856890000">
<ele>0</ele>
<time>2026-09-04T07:20:15Z</time>
</trkpt>
<trkpt lat="46.600540000" lon="-72.858030000">
<ele>0</ele>
<time>2026-09-04T07:20:16Z</time>
</trkpt>
<trkpt lat="46.600550000" lon="-72.858090000">
<ele>0</ele>
<time>2026-09-04T07:20:17Z</time>
</trkpt>
<trkpt lat="46.600550000" lon="-72.858090000">
<ele>0</ele>
<time>2026-09-04T07:20:18Z</time>
</trkpt>
<trkpt lat="46.600840000" lon="-72.859160000">
<ele>0</ele>
<time>2026-09-04T07:20:19Z</time>
</trkpt>
<trkpt lat="46.601280000" lon="-72.860620000">
<ele>0</ele>
<time>2026-09-04T07:20:20Z</time>
</trkpt>
<trkpt lat="46.601790000" lon="-72.862280000">
<ele>0</ele>
<time>2026-09-04T07:20:21Z</time>
</trkpt>
<trkpt lat="46.602270000" lon="-72.863910000">
<ele>0</ele>
<time>2026-09-04T07:20:22Z</time>
</trkpt>
<trkpt lat="46.602510000" lon="-72.864720000">
<ele>0</ele>
<time>2026-09-04T07:20:23Z</time>
</trkpt>
<trkpt lat="46.602610000" lon="-72.865110000">
<ele>0</ele>
<time>2026-09-04T07:20:24Z</time>
</trkpt>
<trkpt lat="46.602720000" lon="-72.865940000">
<ele>0</ele>
<time>2026-09-04T07:20:25Z</time>
</trkpt>
<trkpt lat="46.602750000" lon="-72.866410000">
<ele>0</ele>
<time>2026-09-04T07:20:26Z</time>
</trkpt>
<trkpt lat="46.602750000" lon="-72.866940000">
<ele>0</ele>
<time>2026-09-04T07:20:27Z</time>
</trkpt>
<trkpt lat="46.602710000" lon="-72.867370000">
<ele>0</ele>
<time>2026-09-04T07:20:28Z</time>
</trkpt>
<trkpt lat="46.602660000" lon="-72.867730000">
<ele>0</ele>
<time>2026-09-04T07:20:29Z</time>
</trkpt>
<trkpt lat="46.602490000" lon="-72.868520000">
<ele>0</ele>
<time>2026-09-04T07:20:30Z</time>
</trkpt>
<trkpt lat="46.602310000" lon="-72.869080000">
<ele>0</ele>
<time>2026-09-04T07:20:31Z</time>
</trkpt>
<trkpt lat="46.602140000" lon="-72.869470000">
<ele>0</ele>
<time>2026-09-04T07:20:32Z</time>
</trkpt>
<trkpt lat="46.601940000" lon="-72.869850000">
<ele>0</ele>
<time>2026-09-04T07:20:33Z</time>
</trkpt>
<trkpt lat="46.601560000" lon="-72.870490000">
<ele>0</ele>
<time>2026-09-04T07:20:34Z</time>
</trkpt>
<trkpt lat="46.600420000" lon="-72.872360000">
<ele>0</ele>
<time>2026-09-04T07:20:35Z</time>
</trkpt>
<trkpt lat="46.599000000" lon="-72.874720000">
<ele>0</ele>
<time>2026-09-04T07:20:36Z</time>
</trkpt>
<trkpt lat="46.597780000" lon="-72.876730000">
<ele>0</ele>
<time>2026-09-04T07:20:37Z</time>
</trkpt>
<trkpt lat="46.597580000" lon="-72.877060000">
<ele>0</ele>
<time>2026-09-04T07:20:38Z</time>
</trkpt>
<trkpt lat="46.597310000" lon="-72.877580000">
<ele>0</ele>
<time>2026-09-04T07:20:39Z</time>
</trkpt>
<trkpt lat="46.597010000" lon="-72.878250000">
<ele>0</ele>
<time>2026-09-04T07:20:40Z</time>
</trkpt>
<trkpt lat="46.596880000" lon="-72.878610000">
<ele>0</ele>
<time>2026-09-04T07:20:41Z</time>
</trkpt>
<trkpt lat="46.596520000" lon="-72.879690000">
<ele>0</ele>
<time>2026-09-04T07:20:42Z</time>
</trkpt>
<trkpt lat="46.596400000" lon="-72.880040000">
<ele>0</ele>
<time>2026-09-04T07:20:43Z</time>
</trkpt>
<trkpt lat="46.596180000" lon="-72.880610000">
<ele>0</ele>
<time>2026-09-04T07:20:44Z</time>
</trkpt>
<trkpt lat="46.596080000" lon="-72.880830000">
<ele>0</ele>
<time>2026-09-04T07:20:45Z</time>
</trkpt>
<trkpt lat="46.595780000" lon="-72.881400000">
<ele>0</ele>
<time>2026-09-04T07:20:46Z</time>
</trkpt>
<trkpt lat="46.594540000" lon="-72.883540000">
<ele>0</ele>
<time>2026-09-04T07:20:47Z</time>
</trkpt>
<trkpt lat="46.593840000" lon="-72.884740000">
<ele>0</ele>
<time>2026-09-04T07:20:48Z</time>
</trkpt>
<trkpt lat="46.593390000" lon="-72.885480000">
<ele>0</ele>
<time>2026-09-04T07:20:49Z</time>
</trkpt>
<trkpt lat="46.593150000" lon="-72.885790000">
<ele>0</ele>
<time>2026-09-04T07:20:50Z</time>
</trkpt>
<trkpt lat="46.592950000" lon="-72.886030000">
<ele>0</ele>
<time>2026-09-04T07:20:51Z</time>
</trkpt>
<trkpt lat="46.592570000" lon="-72.886390000">
<ele>0</ele>
<time>2026-09-04T07:20:52Z</time>
</trkpt>
<trkpt lat="46.591950000" lon="-72.886890000">
<ele>0</ele>
<time>2026-09-04T07:20:53Z</time>
</trkpt>
<trkpt lat="46.591450000" lon="-72.887290000">
<ele>0</ele>
<time>2026-09-04T07:20:54Z</time>
</trkpt>
<trkpt lat="46.591210000" lon="-72.887500000">
<ele>0</ele>
<time>2026-09-04T07:20:55Z</time>
</trkpt>
<trkpt lat="46.590900000" lon="-72.887840000">
<ele>0</ele>
<time>2026-09-04T07:20:56Z</time>
</trkpt>
<trkpt lat="46.590570000" lon="-72.888240000">
<ele>0</ele>
<time>2026-09-04T07:20:57Z</time>
</trkpt>
<trkpt lat="46.590090000" lon="-72.888920000">
<ele>0</ele>
<time>2026-09-04T07:20:58Z</time>
</trkpt>
<trkpt lat="46.588800000" lon="-72.890740000">
<ele>0</ele>
<time>2026-09-04T07:20:59Z</time>
</trkpt>
<trkpt lat="46.587280000" lon="-72.892960000">
<ele>0</ele>
<time>2026-09-04T07:21:00Z</time>
</trkpt>
<trkpt lat="46.585740000" lon="-72.895210000">
<ele>0</ele>
<time>2026-09-04T07:21:01Z</time>
</trkpt>
<trkpt lat="46.583760000" lon="-72.898070000">
<ele>0</ele>
<time>2026-09-04T07:21:02Z</time>
</trkpt>
<trkpt lat="46.583400000" lon="-72.898590000">
<ele>0</ele>
<time>2026-09-04T07:21:03Z</time>
</trkpt>
<trkpt lat="46.583240000" lon="-72.898790000">
<ele>0</ele>
<time>2026-09-04T07:21:04Z</time>
</trkpt>
<trkpt lat="46.583020000" lon="-72.899000000">
<ele>0</ele>
<time>2026-09-04T07:21:05Z</time>
</trkpt>
<trkpt lat="46.582750000" lon="-72.899210000">
<ele>0</ele>
<time>2026-09-04T07:21:06Z</time>
</trkpt>
<trkpt lat="46.582420000" lon="-72.899390000">
<ele>0</ele>
<time>2026-09-04T07:21:07Z</time>
</trkpt>
<trkpt lat="46.582130000" lon="-72.899480000">
<ele>0</ele>
<time>2026-09-04T07:21:08Z</time>
</trkpt>
<trkpt lat="46.581850000" lon="-72.899520000">
<ele>0</ele>
<time>2026-09-04T07:21:09Z</time>
</trkpt>
<trkpt lat="46.581420000" lon="-72.899500000">
<ele>0</ele>
<time>2026-09-04T07:21:10Z</time>
</trkpt>
<trkpt lat="46.581210000" lon="-72.899460000">
<ele>0</ele>
<time>2026-09-04T07:21:11Z</time>
</trkpt>
<trkpt lat="46.580870000" lon="-72.899360000">
<ele>0</ele>
<time>2026-09-04T07:21:12Z</time>
</trkpt>
<trkpt lat="46.579880000" lon="-72.899020000">
<ele>0</ele>
<time>2026-09-04T07:21:13Z</time>
</trkpt>
<trkpt lat="46.579710000" lon="-72.898980000">
<ele>0</ele>
<time>2026-09-04T07:21:14Z</time>
</trkpt>
<trkpt lat="46.579370000" lon="-72.898920000">
<ele>0</ele>
<time>2026-09-04T07:21:15Z</time>
</trkpt>
<trkpt lat="46.579050000" lon="-72.898930000">
<ele>0</ele>
<time>2026-09-04T07:21:16Z</time>
</trkpt>
<trkpt lat="46.578790000" lon="-72.898990000">
<ele>0</ele>
<time>2026-09-04T07:21:17Z</time>
</trkpt>
<trkpt lat="46.578470000" lon="-72.899110000">
<ele>0</ele>
<time>2026-09-04T07:21:18Z</time>
</trkpt>
<trkpt lat="46.578190000" lon="-72.899270000">
<ele>0</ele>
<time>2026-09-04T07:21:19Z</time>
</trkpt>
<trkpt lat="46.578060000" lon="-72.899360000">
<ele>0</ele>
<time>2026-09-04T07:21:20Z</time>
</trkpt>
<trkpt lat="46.577780000" lon="-72.899590000">
<ele>0</ele>
<time>2026-09-04T07:21:21Z</time>
</trkpt>
<trkpt lat="46.577560000" lon="-72.899820000">
<ele>0</ele>
<time>2026-09-04T07:21:22Z</time>
</trkpt>
<trkpt lat="46.577290000" lon="-72.900160000">
<ele>0</ele>
<time>2026-09-04T07:21:23Z</time>
</trkpt>
<trkpt lat="46.576650000" lon="-72.901070000">
<ele>0</ele>
<time>2026-09-04T07:21:24Z</time>
</trkpt>
<trkpt lat="46.576140000" lon="-72.901820000">
<ele>0</ele>
<time>2026-09-04T07:21:25Z</time>
</trkpt>
<trkpt lat="46.574510000" lon="-72.904100000">
<ele>0</ele>
<time>2026-09-04T07:21:26Z</time>
</trkpt>
<trkpt lat="46.574230000" lon="-72.904540000">
<ele>0</ele>
<time>2026-09-04T07:21:27Z</time>
</trkpt>
<trkpt lat="46.574070000" lon="-72.904850000">
<ele>0</ele>
<time>2026-09-04T07:21:28Z</time>
</trkpt>
<trkpt lat="46.573940000" lon="-72.905180000">
<ele>0</ele>
<time>2026-09-04T07:21:29Z</time>
</trkpt>
<trkpt lat="46.573790000" lon="-72.905670000">
<ele>0</ele>
<time>2026-09-04T07:21:30Z</time>
</trkpt>
<trkpt lat="46.573700000" lon="-72.906110000">
<ele>0</ele>
<time>2026-09-04T07:21:31Z</time>
</trkpt>
<trkpt lat="46.573640000" lon="-72.906540000">
<ele>0</ele>
<time>2026-09-04T07:21:32Z</time>
</trkpt>
<trkpt lat="46.573630000" lon="-72.906990000">
<ele>0</ele>
<time>2026-09-04T07:21:33Z</time>
</trkpt>
<trkpt lat="46.573640000" lon="-72.907430000">
<ele>0</ele>
<time>2026-09-04T07:21:34Z</time>
</trkpt>
<trkpt lat="46.573700000" lon="-72.907850000">
<ele>0</ele>
<time>2026-09-04T07:21:35Z</time>
</trkpt>
<trkpt lat="46.573920000" lon="-72.909040000">
<ele>0</ele>
<time>2026-09-04T07:21:36Z</time>
</trkpt>
<trkpt lat="46.574200000" lon="-72.910590000">
<ele>0</ele>
<time>2026-09-04T07:21:37Z</time>
</trkpt>
<trkpt lat="46.574240000" lon="-72.911010000">
<ele>0</ele>
<time>2026-09-04T07:21:38Z</time>
</trkpt>
<trkpt lat="46.574240000" lon="-72.911570000">
<ele>0</ele>
<time>2026-09-04T07:21:39Z</time>
</trkpt>
<trkpt lat="46.574180000" lon="-72.912160000">
<ele>0</ele>
<time>2026-09-04T07:21:40Z</time>
</trkpt>
<trkpt lat="46.573990000" lon="-72.913080000">
<ele>0</ele>
<time>2026-09-04T07:21:41Z</time>
</trkpt>
<trkpt lat="46.572830000" lon="-72.917930000">
<ele>0</ele>
<time>2026-09-04T07:21:42Z</time>
</trkpt>
<trkpt lat="46.572460000" lon="-72.919570000">
<ele>0</ele>
<time>2026-09-04T07:21:43Z</time>
</trkpt>
<trkpt lat="46.572190000" lon="-72.920490000">
<ele>0</ele>
<time>2026-09-04T07:21:44Z</time>
</trkpt>
<trkpt lat="46.572160000" lon="-72.920630000">
<ele>0</ele>
<time>2026-09-04T07:21:45Z</time>
</trkpt>
<trkpt lat="46.572160000" lon="-72.920780000">
<ele>0</ele>
<time>2026-09-04T07:21:46Z</time>
</trkpt>
<trkpt lat="46.572260000" lon="-72.921100000">
<ele>0</ele>
<time>2026-09-04T07:21:47Z</time>
</trkpt>
<trkpt lat="46.572470000" lon="-72.921570000">
<ele>0</ele>
<time>2026-09-04T07:21:48Z</time>
</trkpt>
<trkpt lat="46.573040000" lon="-72.922710000">
<ele>0</ele>
<time>2026-09-04T07:21:49Z</time>
</trkpt>
<trkpt lat="46.573040000" lon="-72.922710000">
<ele>0</ele>
<time>2026-09-04T07:21:50Z</time>
</trkpt>
<trkpt lat="46.573150000" lon="-72.922920000">
<ele>0</ele>
<time>2026-09-04T07:21:51Z</time>
</trkpt>
<trkpt lat="46.573230000" lon="-72.922780000">
<ele>0</ele>
<time>2026-09-04T07:21:52Z</time>
</trkpt>
<trkpt lat="46.573380000" lon="-72.922580000">
<ele>0</ele>
<time>2026-09-04T07:21:53Z</time>
</trkpt>
<trkpt lat="46.573600000" lon="-72.922250000">
<ele>0</ele>
<time>2026-09-04T07:21:54Z</time>
</trkpt>
<trkpt lat="46.573600000" lon="-72.922250000">
<ele>0</ele>
<time>2026-09-04T07:21:55Z</time>
</trkpt>
<trkpt lat="46.573380000" lon="-72.922580000">
<ele>0</ele>
<time>2026-09-04T07:21:56Z</time>
</trkpt>
<trkpt lat="46.573230000" lon="-72.922780000">
<ele>0</ele>
<time>2026-09-04T07:21:57Z</time>
</trkpt>
<trkpt lat="46.573010000" lon="-72.923150000">
<ele>0</ele>
<time>2026-09-04T07:21:58Z</time>
</trkpt>
<trkpt lat="46.573010000" lon="-72.923150000">
<ele>0</ele>
<time>2026-09-04T07:21:59Z</time>
</trkpt>
<trkpt lat="46.572250000" lon="-72.924280000">
<ele>0</ele>
<time>2026-09-04T07:22:00Z</time>
</trkpt>
<trkpt lat="46.571620000" lon="-72.925220000">
<ele>0</ele>
<time>2026-09-04T07:22:01Z</time>
</trkpt>
<trkpt lat="46.571620000" lon="-72.925220000">
<ele>0</ele>
<time>2026-09-04T07:22:02Z</time>
</trkpt>
<trkpt lat="46.570460000" lon="-72.927020000">
<ele>0</ele>
<time>2026-09-04T07:22:03Z</time>
</trkpt>
<trkpt lat="46.570070000" lon="-72.927570000">
<ele>0</ele>
<time>2026-09-04T07:22:04Z</time>
</trkpt>
<trkpt lat="46.569760000" lon="-72.928070000">
<ele>0</ele>
<time>2026-09-04T07:22:05Z</time>
</trkpt>
<trkpt lat="46.569760000" lon="-72.928070000">
<ele>0</ele>
<time>2026-09-04T07:22:06Z</time>
</trkpt>
<trkpt lat="46.569220000" lon="-72.928830000">
<ele>0</ele>
<time>2026-09-04T07:22:07Z</time>
</trkpt>
<trkpt lat="46.569060000" lon="-72.928990000">
<ele>0</ele>
<time>2026-09-04T07:22:08Z</time>
</trkpt>
<trkpt lat="46.568870000" lon="-72.929140000">
<ele>0</ele>
<time>2026-09-04T07:22:09Z</time>
</trkpt>
<trkpt lat="46.568700000" lon="-72.929220000">
<ele>0</ele>
<time>2026-09-04T07:22:10Z</time>
</trkpt>
<trkpt lat="46.568170000" lon="-72.929270000">
<ele>0</ele>
<time>2026-09-04T07:22:11Z</time>
</trkpt>
<trkpt lat="46.567730000" lon="-72.929410000">
<ele>0</ele>
<time>2026-09-04T07:22:12Z</time>
</trkpt>
<trkpt lat="46.567470000" lon="-72.929540000">
<ele>0</ele>
<time>2026-09-04T07:22:13Z</time>
</trkpt>
<trkpt lat="46.566630000" lon="-72.930030000">
<ele>0</ele>
<time>2026-09-04T07:22:14Z</time>
</trkpt>
<trkpt lat="46.566300000" lon="-72.930250000">
<ele>0</ele>
<time>2026-09-04T07:22:15Z</time>
</trkpt>
<trkpt lat="46.566130000" lon="-72.930400000">
<ele>0</ele>
<time>2026-09-04T07:22:16Z</time>
</trkpt>
<trkpt lat="46.565950000" lon="-72.930580000">
<ele>0</ele>
<time>2026-09-04T07:22:17Z</time>
</trkpt>
<trkpt lat="46.565680000" lon="-72.931010000">
<ele>0</ele>
<time>2026-09-04T07:22:18Z</time>
</trkpt>
<trkpt lat="46.565160000" lon="-72.931950000">
<ele>0</ele>
<time>2026-09-04T07:22:19Z</time>
</trkpt>
<trkpt lat="46.564970000" lon="-72.932240000">
<ele>0</ele>
<time>2026-09-04T07:22:20Z</time>
</trkpt>
<trkpt lat="46.564730000" lon="-72.932490000">
<ele>0</ele>
<time>2026-09-04T07:22:21Z</time>
</trkpt>
<trkpt lat="46.564290000" lon="-72.932930000">
<ele>0</ele>
<time>2026-09-04T07:22:22Z</time>
</trkpt>
<trkpt lat="46.563560000" lon="-72.933690000">
<ele>0</ele>
<time>2026-09-04T07:22:23Z</time>
</trkpt>
<trkpt lat="46.563360000" lon="-72.933900000">
<ele>0</ele>
<time>2026-09-04T07:22:24Z</time>
</trkpt>
<trkpt lat="46.562910000" lon="-72.934490000">
<ele>0</ele>
<time>2026-09-04T07:22:25Z</time>
</trkpt>
<trkpt lat="46.562390000" lon="-72.935110000">
<ele>0</ele>
<time>2026-09-04T07:22:26Z</time>
</trkpt>
<trkpt lat="46.562130000" lon="-72.935350000">
<ele>0</ele>
<time>2026-09-04T07:22:27Z</time>
</trkpt>
<trkpt lat="46.561840000" lon="-72.935580000">
<ele>0</ele>
<time>2026-09-04T07:22:28Z</time>
</trkpt>
<trkpt lat="46.561560000" lon="-72.935760000">
<ele>0</ele>
<time>2026-09-04T07:22:29Z</time>
</trkpt>
<trkpt lat="46.561280000" lon="-72.936000000">
<ele>0</ele>
<time>2026-09-04T07:22:30Z</time>
</trkpt>
<trkpt lat="46.561010000" lon="-72.936180000">
<ele>0</ele>
<time>2026-09-04T07:22:31Z</time>
</trkpt>
<trkpt lat="46.560300000" lon="-72.936630000">
<ele>0</ele>
<time>2026-09-04T07:22:32Z</time>
</trkpt>
<trkpt lat="46.559630000" lon="-72.937020000">
<ele>0</ele>
<time>2026-09-04T07:22:33Z</time>
</trkpt>
<trkpt lat="46.559400000" lon="-72.937190000">
<ele>0</ele>
<time>2026-09-04T07:22:34Z</time>
</trkpt>
<trkpt lat="46.559250000" lon="-72.937320000">
<ele>0</ele>
<time>2026-09-04T07:22:35Z</time>
</trkpt>
<trkpt lat="46.559070000" lon="-72.937510000">
<ele>0</ele>
<time>2026-09-04T07:22:36Z</time>
</trkpt>
<trkpt lat="46.558830000" lon="-72.937800000">
<ele>0</ele>
<time>2026-09-04T07:22:37Z</time>
</trkpt>
<trkpt lat="46.558440000" lon="-72.938320000">
<ele>0</ele>
<time>2026-09-04T07:22:38Z</time>
</trkpt>
<trkpt lat="46.558120000" lon="-72.938740000">
<ele>0</ele>
<time>2026-09-04T07:22:39Z</time>
</trkpt>
<trkpt lat="46.557340000" lon="-72.939890000">
<ele>0</ele>
<time>2026-09-04T07:22:40Z</time>
</trkpt>
<trkpt lat="46.556420000" lon="-72.941030000">
<ele>0</ele>
<time>2026-09-04T07:22:41Z</time>
</trkpt>
<trkpt lat="46.556150000" lon="-72.941350000">
<ele>0</ele>
<time>2026-09-04T07:22:42Z</time>
</trkpt>
<trkpt lat="46.555310000" lon="-72.942470000">
<ele>0</ele>
<time>2026-09-04T07:22:43Z</time>
</trkpt>
<trkpt lat="46.554540000" lon="-72.943520000">
<ele>0</ele>
<time>2026-09-04T07:22:44Z</time>
</trkpt>
<trkpt lat="46.554240000" lon="-72.943860000">
<ele>0</ele>
<time>2026-09-04T07:22:45Z</time>
</trkpt>
<trkpt lat="46.554040000" lon="-72.944040000">
<ele>0</ele>
<time>2026-09-04T07:22:46Z</time>
</trkpt>
<trkpt lat="46.553750000" lon="-72.944180000">
<ele>0</ele>
<time>2026-09-04T07:22:47Z</time>
</trkpt>
<trkpt lat="46.553010000" lon="-72.944470000">
<ele>0</ele>
<time>2026-09-04T07:22:48Z</time>
</trkpt>
<trkpt lat="46.552750000" lon="-72.944560000">
<ele>0</ele>
<time>2026-09-04T07:22:49Z</time>
</trkpt>
<trkpt lat="46.552580000" lon="-72.944660000">
<ele>0</ele>
<time>2026-09-04T07:22:50Z</time>
</trkpt>
<trkpt lat="46.552110000" lon="-72.944970000">
<ele>0</ele>
<time>2026-09-04T07:22:51Z</time>
</trkpt>
<trkpt lat="46.551340000" lon="-72.945520000">
<ele>0</ele>
<time>2026-09-04T07:22:52Z</time>
</trkpt>
<trkpt lat="46.551050000" lon="-72.945740000">
<ele>0</ele>
<time>2026-09-04T07:22:53Z</time>
</trkpt>
<trkpt lat="46.550470000" lon="-72.946260000">
<ele>0</ele>
<time>2026-09-04T07:22:54Z</time>
</trkpt>
<trkpt lat="46.550020000" lon="-72.946700000">
<ele>0</ele>
<time>2026-09-04T07:22:55Z</time>
</trkpt>
<trkpt lat="46.549710000" lon="-72.947100000">
<ele>0</ele>
<time>2026-09-04T07:22:56Z</time>
</trkpt>
<trkpt lat="46.549430000" lon="-72.947440000">
<ele>0</ele>
<time>2026-09-04T07:22:57Z</time>
</trkpt>
<trkpt lat="46.549280000" lon="-72.947590000">
<ele>0</ele>
<time>2026-09-04T07:22:58Z</time>
</trkpt>
<trkpt lat="46.549050000" lon="-72.947760000">
<ele>0</ele>
<time>2026-09-04T07:22:59Z</time>
</trkpt>
<trkpt lat="46.548790000" lon="-72.947870000">
<ele>0</ele>
<time>2026-09-04T07:23:00Z</time>
</trkpt>
<trkpt lat="46.548630000" lon="-72.947900000">
<ele>0</ele>
<time>2026-09-04T07:23:01Z</time>
</trkpt>
<trkpt lat="46.548540000" lon="-72.947890000">
<ele>0</ele>
<time>2026-09-04T07:23:02Z</time>
</trkpt>
<trkpt lat="46.548410000" lon="-72.947880000">
<ele>0</ele>
<time>2026-09-04T07:23:03Z</time>
</trkpt>
<trkpt lat="46.548260000" lon="-72.947810000">
<ele>0</ele>
<time>2026-09-04T07:23:04Z</time>
</trkpt>
<trkpt lat="46.548010000" lon="-72.947700000">
<ele>0</ele>
<time>2026-09-04T07:23:05Z</time>
</trkpt>
<trkpt lat="46.547910000" lon="-72.947690000">
<ele>0</ele>
<time>2026-09-04T07:23:06Z</time>
</trkpt>
<trkpt lat="46.547550000" lon="-72.947740000">
<ele>0</ele>
<time>2026-09-04T07:23:07Z</time>
</trkpt>
<trkpt lat="46.547370000" lon="-72.947840000">
<ele>0</ele>
<time>2026-09-04T07:23:08Z</time>
</trkpt>
<trkpt lat="46.547240000" lon="-72.947950000">
<ele>0</ele>
<time>2026-09-04T07:23:09Z</time>
</trkpt>
<trkpt lat="46.547200000" lon="-72.947980000">
<ele>0</ele>
<time>2026-09-04T07:23:10Z</time>
</trkpt>
<trkpt lat="46.547050000" lon="-72.948110000">
<ele>0</ele>
<time>2026-09-04T07:23:11Z</time>
</trkpt>
<trkpt lat="46.546530000" lon="-72.948550000">
<ele>0</ele>
<time>2026-09-04T07:23:12Z</time>
</trkpt>
<trkpt lat="46.546270000" lon="-72.948810000">
<ele>0</ele>
<time>2026-09-04T07:23:13Z</time>
</trkpt>
<trkpt lat="46.546030000" lon="-72.949080000">
<ele>0</ele>
<time>2026-09-04T07:23:14Z</time>
</trkpt>
<trkpt lat="46.545600000" lon="-72.949650000">
<ele>0</ele>
<time>2026-09-04T07:23:15Z</time>
</trkpt>
<trkpt lat="46.545230000" lon="-72.950190000">
<ele>0</ele>
<time>2026-09-04T07:23:16Z</time>
</trkpt>
<trkpt lat="46.544700000" lon="-72.951040000">
<ele>0</ele>
<time>2026-09-04T07:23:17Z</time>
</trkpt>
<trkpt lat="46.544480000" lon="-72.951410000">
<ele>0</ele>
<time>2026-09-04T07:23:18Z</time>
</trkpt>
<trkpt lat="46.544210000" lon="-72.951850000">
<ele>0</ele>
<time>2026-09-04T07:23:19Z</time>
</trkpt>
<trkpt lat="46.544050000" lon="-72.952140000">
<ele>0</ele>
<time>2026-09-04T07:23:20Z</time>
</trkpt>
<trkpt lat="46.544000000" lon="-72.952260000">
<ele>0</ele>
<time>2026-09-04T07:23:21Z</time>
</trkpt>
<trkpt lat="46.543910000" lon="-72.952640000">
<ele>0</ele>
<time>2026-09-04T07:23:22Z</time>
</trkpt>
<trkpt lat="46.543800000" lon="-72.953140000">
<ele>0</ele>
<time>2026-09-04T07:23:23Z</time>
</trkpt>
<trkpt lat="46.543660000" lon="-72.953640000">
<ele>0</ele>
<time>2026-09-04T07:23:24Z</time>
</trkpt>
<trkpt lat="46.543500000" lon="-72.954000000">
<ele>0</ele>
<time>2026-09-04T07:23:25Z</time>
</trkpt>
<trkpt lat="46.543390000" lon="-72.954290000">
<ele>0</ele>
<time>2026-09-04T07:23:26Z</time>
</trkpt>
<trkpt lat="46.543230000" lon="-72.954760000">
<ele>0</ele>
<time>2026-09-04T07:23:27Z</time>
</trkpt>
<trkpt lat="46.543130000" lon="-72.954920000">
<ele>0</ele>
<time>2026-09-04T07:23:28Z</time>
</trkpt>
<trkpt lat="46.542950000" lon="-72.955110000">
<ele>0</ele>
<time>2026-09-04T07:23:29Z</time>
</trkpt>
<trkpt lat="46.542740000" lon="-72.955210000">
<ele>0</ele>
<time>2026-09-04T07:23:30Z</time>
</trkpt>
<trkpt lat="46.542610000" lon="-72.955240000">
<ele>0</ele>
<time>2026-09-04T07:23:31Z</time>
</trkpt>
<trkpt lat="46.542430000" lon="-72.955220000">
<ele>0</ele>
<time>2026-09-04T07:23:32Z</time>
</trkpt>
<trkpt lat="46.542250000" lon="-72.955140000">
<ele>0</ele>
<time>2026-09-04T07:23:33Z</time>
</trkpt>
<trkpt lat="46.542110000" lon="-72.955040000">
<ele>0</ele>
<time>2026-09-04T07:23:34Z</time>
</trkpt>
<trkpt lat="46.542030000" lon="-72.954960000">
<ele>0</ele>
<time>2026-09-04T07:23:35Z</time>
</trkpt>
<trkpt lat="46.541870000" lon="-72.954770000">
<ele>0</ele>
<time>2026-09-04T07:23:36Z</time>
</trkpt>
<trkpt lat="46.541750000" lon="-72.954580000">
<ele>0</ele>
<time>2026-09-04T07:23:37Z</time>
</trkpt>
<trkpt lat="46.541370000" lon="-72.954060000">
<ele>0</ele>
<time>2026-09-04T07:23:38Z</time>
</trkpt>
<trkpt lat="46.540900000" lon="-72.953520000">
<ele>0</ele>
<time>2026-09-04T07:23:39Z</time>
</trkpt>
<trkpt lat="46.540270000" lon="-72.952750000">
<ele>0</ele>
<time>2026-09-04T07:23:40Z</time>
</trkpt>
<trkpt lat="46.539890000" lon="-72.952380000">
<ele>0</ele>
<time>2026-09-04T07:23:41Z</time>
</trkpt>
<trkpt lat="46.539630000" lon="-72.952170000">
<ele>0</ele>
<time>2026-09-04T07:23:42Z</time>
</trkpt>
<trkpt lat="46.539560000" lon="-72.952130000">
<ele>0</ele>
<time>2026-09-04T07:23:43Z</time>
</trkpt>
<trkpt lat="46.539460000" lon="-72.952100000">
<ele>0</ele>
<time>2026-09-04T07:23:44Z</time>
</trkpt>
<trkpt lat="46.539310000" lon="-72.952100000">
<ele>0</ele>
<time>2026-09-04T07:23:45Z</time>
</trkpt>
<trkpt lat="46.539110000" lon="-72.952160000">
<ele>0</ele>
<time>2026-09-04T07:23:46Z</time>
</trkpt>
<trkpt lat="46.538860000" lon="-72.952260000">
<ele>0</ele>
<time>2026-09-04T07:23:47Z</time>
</trkpt>
<trkpt lat="46.538200000" lon="-72.952570000">
<ele>0</ele>
<time>2026-09-04T07:23:48Z</time>
</trkpt>
<trkpt lat="46.538020000" lon="-72.952650000">
<ele>0</ele>
<time>2026-09-04T07:23:49Z</time>
</trkpt>
<trkpt lat="46.537800000" lon="-72.952700000">
<ele>0</ele>
<time>2026-09-04T07:23:50Z</time>
</trkpt>
<trkpt lat="46.537550000" lon="-72.952660000">
<ele>0</ele>
<time>2026-09-04T07:23:51Z</time>
</trkpt>
<trkpt lat="46.537250000" lon="-72.952530000">
<ele>0</ele>
<time>2026-09-04T07:23:52Z</time>
</trkpt>
<trkpt lat="46.537000000" lon="-72.952370000">
<ele>0</ele>
<time>2026-09-04T07:23:53Z</time>
</trkpt>
<trkpt lat="46.536620000" lon="-72.952020000">
<ele>0</ele>
<time>2026-09-04T07:23:54Z</time>
</trkpt>
<trkpt lat="46.536350000" lon="-72.951690000">
<ele>0</ele>
<time>2026-09-04T07:23:55Z</time>
</trkpt>
<trkpt lat="46.535820000" lon="-72.950960000">
<ele>0</ele>
<time>2026-09-04T07:23:56Z</time>
</trkpt>
<trkpt lat="46.535570000" lon="-72.950740000">
<ele>0</ele>
<time>2026-09-04T07:23:57Z</time>
</trkpt>
<trkpt lat="46.535430000" lon="-72.950640000">
<ele>0</ele>
<time>2026-09-04T07:23:58Z</time>
</trkpt>
<trkpt lat="46.535140000" lon="-72.950500000">
<ele>0</ele>
<time>2026-09-04T07:23:59Z</time>
</trkpt>
<trkpt lat="46.534950000" lon="-72.950450000">
<ele>0</ele>
<time>2026-09-04T07:24:00Z</time>
</trkpt>
<trkpt lat="46.534780000" lon="-72.950390000">
<ele>0</ele>
<time>2026-09-04T07:24:01Z</time>
</trkpt>
<trkpt lat="46.534600000" lon="-72.950370000">
<ele>0</ele>
<time>2026-09-04T07:24:02Z</time>
</trkpt>
<trkpt lat="46.534430000" lon="-72.950410000">
<ele>0</ele>
<time>2026-09-04T07:24:03Z</time>
</trkpt>
<trkpt lat="46.534270000" lon="-72.950500000">
<ele>0</ele>
<time>2026-09-04T07:24:04Z</time>
</trkpt>
<trkpt lat="46.533770000" lon="-72.950810000">
<ele>0</ele>
<time>2026-09-04T07:24:05Z</time>
</trkpt>
<trkpt lat="46.533270000" lon="-72.951160000">
<ele>0</ele>
<time>2026-09-04T07:24:06Z</time>
</trkpt>
<trkpt lat="46.532870000" lon="-72.951500000">
<ele>0</ele>
<time>2026-09-04T07:24:07Z</time>
</trkpt>
<trkpt lat="46.532680000" lon="-72.951740000">
<ele>0</ele>
<time>2026-09-04T07:24:08Z</time>
</trkpt>
<trkpt lat="46.532570000" lon="-72.951920000">
<ele>0</ele>
<time>2026-09-04T07:24:09Z</time>
</trkpt>
<trkpt lat="46.532350000" lon="-72.952420000">
<ele>0</ele>
<time>2026-09-04T07:24:10Z</time>
</trkpt>
<trkpt lat="46.531950000" lon="-72.953410000">
<ele>0</ele>
<time>2026-09-04T07:24:11Z</time>
</trkpt>
<trkpt lat="46.531660000" lon="-72.954070000">
<ele>0</ele>
<time>2026-09-04T07:24:12Z</time>
</trkpt>
<trkpt lat="46.531380000" lon="-72.954550000">
<ele>0</ele>
<time>2026-09-04T07:24:13Z</time>
</trkpt>
<trkpt lat="46.531250000" lon="-72.954740000">
<ele>0</ele>
<time>2026-09-04T07:24:14Z</time>
</trkpt>
<trkpt lat="46.530840000" lon="-72.955250000">
<ele>0</ele>
<time>2026-09-04T07:24:15Z</time>
</trkpt>
<trkpt lat="46.530290000" lon="-72.955920000">
<ele>0</ele>
<time>2026-09-04T07:24:16Z</time>
</trkpt>
<trkpt lat="46.529690000" lon="-72.956660000">
<ele>0</ele>
<time>2026-09-04T07:24:17Z</time>
</trkpt>
<trkpt lat="46.529490000" lon="-72.956950000">
<ele>0</ele>
<time>2026-09-04T07:24:18Z</time>
</trkpt>
<trkpt lat="46.529420000" lon="-72.957090000">
<ele>0</ele>
<time>2026-09-04T07:24:19Z</time>
</trkpt>
<trkpt lat="46.529350000" lon="-72.957270000">
<ele>0</ele>
<time>2026-09-04T07:24:20Z</time>
</trkpt>
<trkpt lat="46.529280000" lon="-72.957660000">
<ele>0</ele>
<time>2026-09-04T07:24:21Z</time>
</trkpt>
<trkpt lat="46.529230000" lon="-72.958070000">
<ele>0</ele>
<time>2026-09-04T07:24:22Z</time>
</trkpt>
<trkpt lat="46.529200000" lon="-72.958180000">
<ele>0</ele>
<time>2026-09-04T07:24:23Z</time>
</trkpt>
<trkpt lat="46.529130000" lon="-72.958330000">
<ele>0</ele>
<time>2026-09-04T07:24:24Z</time>
</trkpt>
<trkpt lat="46.528950000" lon="-72.958540000">
<ele>0</ele>
<time>2026-09-04T07:24:25Z</time>
</trkpt>
<trkpt lat="46.528360000" lon="-72.959140000">
<ele>0</ele>
<time>2026-09-04T07:24:26Z</time>
</trkpt>
<trkpt lat="46.528190000" lon="-72.959300000">
<ele>0</ele>
<time>2026-09-04T07:24:27Z</time>
</trkpt>
<trkpt lat="46.527930000" lon="-72.959490000">
<ele>0</ele>
<time>2026-09-04T07:24:28Z</time>
</trkpt>
<trkpt lat="46.527720000" lon="-72.959580000">
<ele>0</ele>
<time>2026-09-04T07:24:29Z</time>
</trkpt>
<trkpt lat="46.527590000" lon="-72.959600000">
<ele>0</ele>
<time>2026-09-04T07:24:30Z</time>
</trkpt>
<trkpt lat="46.527400000" lon="-72.959580000">
<ele>0</ele>
<time>2026-09-04T07:24:31Z</time>
</trkpt>
<trkpt lat="46.527130000" lon="-72.959540000">
<ele>0</ele>
<time>2026-09-04T07:24:32Z</time>
</trkpt>
<trkpt lat="46.526870000" lon="-72.959560000">
<ele>0</ele>
<time>2026-09-04T07:24:33Z</time>
</trkpt>
<trkpt lat="46.526670000" lon="-72.959640000">
<ele>0</ele>
<time>2026-09-04T07:24:34Z</time>
</trkpt>
<trkpt lat="46.526490000" lon="-72.959750000">
<ele>0</ele>
<time>2026-09-04T07:24:35Z</time>
</trkpt>
<trkpt lat="46.526300000" lon="-72.959920000">
<ele>0</ele>
<time>2026-09-04T07:24:36Z</time>
</trkpt>
<trkpt lat="46.526160000" lon="-72.960070000">
<ele>0</ele>
<time>2026-09-04T07:24:37Z</time>
</trkpt>
<trkpt lat="46.525790000" lon="-72.960530000">
<ele>0</ele>
<time>2026-09-04T07:24:38Z</time>
</trkpt>
<trkpt lat="46.525450000" lon="-72.960950000">
<ele>0</ele>
<time>2026-09-04T07:24:39Z</time>
</trkpt>
<trkpt lat="46.525310000" lon="-72.961060000">
<ele>0</ele>
<time>2026-09-04T07:24:40Z</time>
</trkpt>
<trkpt lat="46.525200000" lon="-72.961080000">
<ele>0</ele>
<time>2026-09-04T07:24:41Z</time>
</trkpt>
<trkpt lat="46.525040000" lon="-72.961110000">
<ele>0</ele>
<time>2026-09-04T07:24:42Z</time>
</trkpt>
<trkpt lat="46.524880000" lon="-72.961160000">
<ele>0</ele>
<time>2026-09-04T07:24:43Z</time>
</trkpt>
<trkpt lat="46.524670000" lon="-72.961260000">
<ele>0</ele>
<time>2026-09-04T07:24:44Z</time>
</trkpt>
<trkpt lat="46.524350000" lon="-72.961470000">
<ele>0</ele>
<time>2026-09-04T07:24:45Z</time>
</trkpt>
<trkpt lat="46.524030000" lon="-72.961720000">
<ele>0</ele>
<time>2026-09-04T07:24:46Z</time>
</trkpt>
<trkpt lat="46.523430000" lon="-72.962300000">
<ele>0</ele>
<time>2026-09-04T07:24:47Z</time>
</trkpt>
<trkpt lat="46.522860000" lon="-72.962850000">
<ele>0</ele>
<time>2026-09-04T07:24:48Z</time>
</trkpt>
<trkpt lat="46.522540000" lon="-72.963070000">
<ele>0</ele>
<time>2026-09-04T07:24:49Z</time>
</trkpt>
<trkpt lat="46.522010000" lon="-72.963280000">
<ele>0</ele>
<time>2026-09-04T07:24:50Z</time>
</trkpt>
<trkpt lat="46.521720000" lon="-72.963400000">
<ele>0</ele>
<time>2026-09-04T07:24:51Z</time>
</trkpt>
<trkpt lat="46.521410000" lon="-72.963480000">
<ele>0</ele>
<time>2026-09-04T07:24:52Z</time>
</trkpt>
<trkpt lat="46.521230000" lon="-72.963480000">
<ele>0</ele>
<time>2026-09-04T07:24:53Z</time>
</trkpt>
<trkpt lat="46.521060000" lon="-72.963430000">
<ele>0</ele>
<time>2026-09-04T07:24:54Z</time>
</trkpt>
<trkpt lat="46.520930000" lon="-72.963370000">
<ele>0</ele>
<time>2026-09-04T07:24:55Z</time>
</trkpt>
<trkpt lat="46.520700000" lon="-72.963190000">
<ele>0</ele>
<time>2026-09-04T07:24:56Z</time>
</trkpt>
<trkpt lat="46.520510000" lon="-72.962970000">
<ele>0</ele>
<time>2026-09-04T07:24:57Z</time>
</trkpt>
<trkpt lat="46.520430000" lon="-72.962830000">
<ele>0</ele>
<time>2026-09-04T07:24:58Z</time>
</trkpt>
<trkpt lat="46.520350000" lon="-72.962640000">
<ele>0</ele>
<time>2026-09-04T07:24:59Z</time>
</trkpt>
<trkpt lat="46.520210000" lon="-72.962300000">
<ele>0</ele>
<time>2026-09-04T07:25:00Z</time>
</trkpt>
<trkpt lat="46.520070000" lon="-72.961830000">
<ele>0</ele>
<time>2026-09-04T07:25:01Z</time>
</trkpt>
<trkpt lat="46.519940000" lon="-72.961350000">
<ele>0</ele>
<time>2026-09-04T07:25:02Z</time>
</trkpt>
<trkpt lat="46.519880000" lon="-72.961100000">
<ele>0</ele>
<time>2026-09-04T07:25:03Z</time>
</trkpt>
<trkpt lat="46.519600000" lon="-72.960140000">
<ele>0</ele>
<time>2026-09-04T07:25:04Z</time>
</trkpt>
<trkpt lat="46.519230000" lon="-72.958950000">
<ele>0</ele>
<time>2026-09-04T07:25:05Z</time>
</trkpt>
<trkpt lat="46.518910000" lon="-72.958010000">
<ele>0</ele>
<time>2026-09-04T07:25:06Z</time>
</trkpt>
<trkpt lat="46.518660000" lon="-72.957320000">
<ele>0</ele>
<time>2026-09-04T07:25:07Z</time>
</trkpt>
<trkpt lat="46.518570000" lon="-72.957090000">
<ele>0</ele>
<time>2026-09-04T07:25:08Z</time>
</trkpt>
<trkpt lat="46.518390000" lon="-72.956740000">
<ele>0</ele>
<time>2026-09-04T07:25:09Z</time>
</trkpt>
<trkpt lat="46.518020000" lon="-72.956160000">
<ele>0</ele>
<time>2026-09-04T07:25:10Z</time>
</trkpt>
<trkpt lat="46.517780000" lon="-72.955920000">
<ele>0</ele>
<time>2026-09-04T07:25:11Z</time>
</trkpt>
<trkpt lat="46.517660000" lon="-72.955850000">
<ele>0</ele>
<time>2026-09-04T07:25:12Z</time>
</trkpt>
<trkpt lat="46.517450000" lon="-72.955820000">
<ele>0</ele>
<time>2026-09-04T07:25:13Z</time>
</trkpt>
<trkpt lat="46.516970000" lon="-72.955920000">
<ele>0</ele>
<time>2026-09-04T07:25:14Z</time>
</trkpt>
<trkpt lat="46.516780000" lon="-72.955900000">
<ele>0</ele>
<time>2026-09-04T07:25:15Z</time>
</trkpt>
<trkpt lat="46.516630000" lon="-72.955800000">
<ele>0</ele>
<time>2026-09-04T07:25:16Z</time>
</trkpt>
<trkpt lat="46.516570000" lon="-72.955710000">
<ele>0</ele>
<time>2026-09-04T07:25:17Z</time>
</trkpt>
<trkpt lat="46.516380000" lon="-72.955400000">
<ele>0</ele>
<time>2026-09-04T07:25:18Z</time>
</trkpt>
<trkpt lat="46.516180000" lon="-72.954850000">
<ele>0</ele>
<time>2026-09-04T07:25:19Z</time>
</trkpt>
<trkpt lat="46.516040000" lon="-72.954470000">
<ele>0</ele>
<time>2026-09-04T07:25:20Z</time>
</trkpt>
<trkpt lat="46.515890000" lon="-72.954110000">
<ele>0</ele>
<time>2026-09-04T07:25:21Z</time>
</trkpt>
<trkpt lat="46.515830000" lon="-72.954010000">
<ele>0</ele>
<time>2026-09-04T07:25:22Z</time>
</trkpt>
<trkpt lat="46.515700000" lon="-72.953880000">
<ele>0</ele>
<time>2026-09-04T07:25:23Z</time>
</trkpt>
<trkpt lat="46.515470000" lon="-72.953710000">
<ele>0</ele>
<time>2026-09-04T07:25:24Z</time>
</trkpt>
<trkpt lat="46.515020000" lon="-72.953430000">
<ele>0</ele>
<time>2026-09-04T07:25:25Z</time>
</trkpt>
<trkpt lat="46.514730000" lon="-72.953190000">
<ele>0</ele>
<time>2026-09-04T07:25:26Z</time>
</trkpt>
<trkpt lat="46.513990000" lon="-72.952470000">
<ele>0</ele>
<time>2026-09-04T07:25:27Z</time>
</trkpt>
<trkpt lat="46.513560000" lon="-72.952140000">
<ele>0</ele>
<time>2026-09-04T07:25:28Z</time>
</trkpt>
<trkpt lat="46.513180000" lon="-72.951890000">
<ele>0</ele>
<time>2026-09-04T07:25:29Z</time>
</trkpt>
<trkpt lat="46.512840000" lon="-72.951710000">
<ele>0</ele>
<time>2026-09-04T07:25:30Z</time>
</trkpt>
<trkpt lat="46.512590000" lon="-72.951640000">
<ele>0</ele>
<time>2026-09-04T07:25:31Z</time>
</trkpt>
<trkpt lat="46.512130000" lon="-72.951630000">
<ele>0</ele>
<time>2026-09-04T07:25:32Z</time>
</trkpt>
<trkpt lat="46.511140000" lon="-72.951610000">
<ele>0</ele>
<time>2026-09-04T07:25:33Z</time>
</trkpt>
<trkpt lat="46.510690000" lon="-72.951640000">
<ele>0</ele>
<time>2026-09-04T07:25:34Z</time>
</trkpt>
<trkpt lat="46.510510000" lon="-72.951670000">
<ele>0</ele>
<time>2026-09-04T07:25:35Z</time>
</trkpt>
<trkpt lat="46.510280000" lon="-72.951730000">
<ele>0</ele>
<time>2026-09-04T07:25:36Z</time>
</trkpt>
<trkpt lat="46.510030000" lon="-72.951890000">
<ele>0</ele>
<time>2026-09-04T07:25:37Z</time>
</trkpt>
<trkpt lat="46.509780000" lon="-72.952070000">
<ele>0</ele>
<time>2026-09-04T07:25:38Z</time>
</trkpt>
<trkpt lat="46.509030000" lon="-72.952480000">
<ele>0</ele>
<time>2026-09-04T07:25:39Z</time>
</trkpt>
<trkpt lat="46.508760000" lon="-72.952620000">
<ele>0</ele>
<time>2026-09-04T07:25:40Z</time>
</trkpt>
<trkpt lat="46.508540000" lon="-72.952710000">
<ele>0</ele>
<time>2026-09-04T07:25:41Z</time>
</trkpt>
<trkpt lat="46.508230000" lon="-72.952780000">
<ele>0</ele>
<time>2026-09-04T07:25:42Z</time>
</trkpt>
<trkpt lat="46.507920000" lon="-72.952780000">
<ele>0</ele>
<time>2026-09-04T07:25:43Z</time>
</trkpt>
<trkpt lat="46.506530000" lon="-72.952610000">
<ele>0</ele>
<time>2026-09-04T07:25:44Z</time>
</trkpt>
<trkpt lat="46.505210000" lon="-72.952440000">
<ele>0</ele>
<time>2026-09-04T07:25:45Z</time>
</trkpt>
<trkpt lat="46.504820000" lon="-72.952370000">
<ele>0</ele>
<time>2026-09-04T07:25:46Z</time>
</trkpt>
<trkpt lat="46.504500000" lon="-72.952270000">
<ele>0</ele>
<time>2026-09-04T07:25:47Z</time>
</trkpt>
<trkpt lat="46.504170000" lon="-72.952080000">
<ele>0</ele>
<time>2026-09-04T07:25:48Z</time>
</trkpt>
<trkpt lat="46.504000000" lon="-72.951920000">
<ele>0</ele>
<time>2026-09-04T07:25:49Z</time>
</trkpt>
<trkpt lat="46.503770000" lon="-72.951630000">
<ele>0</ele>
<time>2026-09-04T07:25:50Z</time>
</trkpt>
<trkpt lat="46.503180000" lon="-72.950820000">
<ele>0</ele>
<time>2026-09-04T07:25:51Z</time>
</trkpt>
<trkpt lat="46.502520000" lon="-72.949880000">
<ele>0</ele>
<time>2026-09-04T07:25:52Z</time>
</trkpt>
<trkpt lat="46.502070000" lon="-72.949250000">
<ele>0</ele>
<time>2026-09-04T07:25:53Z</time>
</trkpt>
<trkpt lat="46.502070000" lon="-72.949250000">
<ele>0</ele>
<time>2026-09-04T07:25:54Z</time>
</trkpt>
<trkpt lat="46.501740000" lon="-72.948840000">
<ele>0</ele>
<time>2026-09-04T07:25:55Z</time>
</trkpt>
<trkpt lat="46.501490000" lon="-72.948570000">
<ele>0</ele>
<time>2026-09-04T07:25:56Z</time>
</trkpt>
<trkpt lat="46.500970000" lon="-72.949430000">
<ele>0</ele>
<time>2026-09-04T07:25:57Z</time>
</trkpt>
<trkpt lat="46.500720000" lon="-72.949830000">
<ele>0</ele>
<time>2026-09-04T07:25:58Z</time>
</trkpt>
<trkpt lat="46.500520000" lon="-72.950150000">
<ele>0</ele>
<time>2026-09-04T07:25:59Z</time>
</trkpt>
<trkpt lat="46.499440000" lon="-72.951860000">
<ele>0</ele>
<time>2026-09-04T07:26:00Z</time>
</trkpt>
<trkpt lat="46.498160000" lon="-72.953870000">
<ele>0</ele>
<time>2026-09-04T07:26:01Z</time>
</trkpt>
<trkpt lat="46.497270000" lon="-72.955270000">
<ele>0</ele>
<time>2026-09-04T07:26:02Z</time>
</trkpt>
<trkpt lat="46.496210000" lon="-72.956920000">
<ele>0</ele>
<time>2026-09-04T07:26:03Z</time>
</trkpt>
<trkpt lat="46.495670000" lon="-72.957750000">
<ele>0</ele>
<time>2026-09-04T07:26:04Z</time>
</trkpt>
<trkpt lat="46.495360000" lon="-72.958190000">
<ele>0</ele>
<time>2026-09-04T07:26:05Z</time>
</trkpt>
<trkpt lat="46.494930000" lon="-72.958700000">
<ele>0</ele>
<time>2026-09-04T07:26:06Z</time>
</trkpt>
<trkpt lat="46.494300000" lon="-72.959640000">
<ele>0</ele>
<time>2026-09-04T07:26:07Z</time>
</trkpt>
<trkpt lat="46.493380000" lon="-72.961030000">
<ele>0</ele>
<time>2026-09-04T07:26:08Z</time>
</trkpt>
<trkpt lat="46.492940000" lon="-72.961710000">
<ele>0</ele>
<time>2026-09-04T07:26:09Z</time>
</trkpt>
<trkpt lat="46.492600000" lon="-72.962220000">
<ele>0</ele>
<time>2026-09-04T07:26:10Z</time>
</trkpt>
<trkpt lat="46.492450000" lon="-72.961690000">
<ele>0</ele>
<time>2026-09-04T07:26:11Z</time>
</trkpt>
<trkpt lat="46.492390000" lon="-72.961480000">
<ele>0</ele>
<time>2026-09-04T07:26:12Z</time>
</trkpt>
<trkpt lat="46.492280000" lon="-72.961150000">
<ele>0</ele>
<time>2026-09-04T07:26:13Z</time>
</trkpt>
<trkpt lat="46.492160000" lon="-72.960880000">
<ele>0</ele>
<time>2026-09-04T07:26:14Z</time>
</trkpt>
<trkpt lat="46.492030000" lon="-72.960670000">
<ele>0</ele>
<time>2026-09-04T07:26:15Z</time>
</trkpt>
<trkpt lat="46.491920000" lon="-72.960550000">
<ele>0</ele>
<time>2026-09-04T07:26:16Z</time>
</trkpt>
<trkpt lat="46.491790000" lon="-72.960440000">
<ele>0</ele>
<time>2026-09-04T07:26:17Z</time>
</trkpt>
<trkpt lat="46.491450000" lon="-72.960260000">
<ele>0</ele>
<time>2026-09-04T07:26:18Z</time>
</trkpt>
<trkpt lat="46.491110000" lon="-72.960080000">
<ele>0</ele>
<time>2026-09-04T07:26:19Z</time>
</trkpt>
<trkpt lat="46.491010000" lon="-72.960010000">
<ele>0</ele>
<time>2026-09-04T07:26:20Z</time>
</trkpt>
<trkpt lat="46.490850000" lon="-72.959870000">
<ele>0</ele>
<time>2026-09-04T07:26:21Z</time>
</trkpt>
<trkpt lat="46.490580000" lon="-72.959520000">
<ele>0</ele>
<time>2026-09-04T07:26:22Z</time>
</trkpt>
<trkpt lat="46.490980000" lon="-72.959000000">
<ele>0</ele>
<time>2026-09-04T07:26:23Z</time>
</trkpt>
<trkpt lat="46.491180000" lon="-72.958760000">
<ele>0</ele>
<time>2026-09-04T07:26:24Z</time>
</trkpt>
<trkpt lat="46.491180000" lon="-72.958760000">
<ele>0</ele>
<time>2026-09-04T07:26:25Z</time>
</trkpt>
<trkpt lat="46.490850000" lon="-72.959170000">
<ele>0</ele>
<time>2026-09-04T07:26:26Z</time>
</trkpt>
<trkpt lat="46.490580000" lon="-72.959520000">
<ele>0</ele>
<time>2026-09-04T07:26:27Z</time>
</trkpt>
<trkpt lat="46.490110000" lon="-72.958830000">
<ele>0</ele>
<time>2026-09-04T07:26:28Z</time>
</trkpt>
<trkpt lat="46.489080000" lon="-72.957480000">
<ele>0</ele>
<time>2026-09-04T07:26:29Z</time>
</trkpt>
<trkpt lat="46.488170000" lon="-72.956230000">
<ele>0</ele>
<time>2026-09-04T07:26:30Z</time>
</trkpt>
<trkpt lat="46.487100000" lon="-72.954610000">
<ele>0</ele>
<time>2026-09-04T07:26:31Z</time>
</trkpt>
<trkpt lat="46.486650000" lon="-72.953960000">
<ele>0</ele>
<time>2026-09-04T07:26:32Z</time>
</trkpt>
<trkpt lat="46.486400000" lon="-72.953650000">
<ele>0</ele>
<time>2026-09-04T07:26:33Z</time>
</trkpt>
<trkpt lat="46.485460000" lon="-72.952520000">
<ele>0</ele>
<time>2026-09-04T07:26:34Z</time>
</trkpt>
<trkpt lat="46.484860000" lon="-72.951730000">
<ele>0</ele>
<time>2026-09-04T07:26:35Z</time>
</trkpt>
<trkpt lat="46.484860000" lon="-72.951730000">
<ele>0</ele>
<time>2026-09-04T07:26:36Z</time>
</trkpt>
<trkpt lat="46.484500000" lon="-72.951150000">
<ele>0</ele>
<time>2026-09-04T07:26:37Z</time>
</trkpt>
<trkpt lat="46.483830000" lon="-72.949940000">
<ele>0</ele>
<time>2026-09-04T07:26:38Z</time>
</trkpt>
<trkpt lat="46.482590000" lon="-72.947680000">
<ele>0</ele>
<time>2026-09-04T07:26:39Z</time>
</trkpt>
<trkpt lat="46.482190000" lon="-72.946860000">
<ele>0</ele>
<time>2026-09-04T07:26:40Z</time>
</trkpt>
<trkpt lat="46.482080000" lon="-72.946620000">
<ele>0</ele>
<time>2026-09-04T07:26:41Z</time>
</trkpt>
<trkpt lat="46.481960000" lon="-72.946720000">
<ele>0</ele>
<time>2026-09-04T07:26:42Z</time>
</trkpt>
<trkpt lat="46.481750000" lon="-72.946810000">
<ele>0</ele>
<time>2026-09-04T07:26:43Z</time>
</trkpt>
<trkpt lat="46.481360000" lon="-72.946780000">
<ele>0</ele>
<time>2026-09-04T07:26:44Z</time>
</trkpt>
<trkpt lat="46.481070000" lon="-72.946740000">
<ele>0</ele>
<time>2026-09-04T07:26:45Z</time>
</trkpt>
<trkpt lat="46.480840000" lon="-72.946760000">
<ele>0</ele>
<time>2026-09-04T07:26:46Z</time>
</trkpt>
<trkpt lat="46.479870000" lon="-72.946410000">
<ele>0</ele>
<time>2026-09-04T07:26:47Z</time>
</trkpt>
<trkpt lat="46.479870000" lon="-72.946410000">
<ele>0</ele>
<time>2026-09-04T07:26:48Z</time>
</trkpt>
<trkpt lat="46.479440000" lon="-72.946250000">
<ele>0</ele>
<time>2026-09-04T07:26:49Z</time>
</trkpt>
<trkpt lat="46.478940000" lon="-72.945950000">
<ele>0</ele>
<time>2026-09-04T07:26:50Z</time>
</trkpt>
<trkpt lat="46.478610000" lon="-72.945750000">
<ele>0</ele>
<time>2026-09-04T07:26:51Z</time>
</trkpt>
<trkpt lat="46.478490000" lon="-72.945680000">
<ele>0</ele>
<time>2026-09-04T07:26:52Z</time>
</trkpt>
<trkpt lat="46.478090000" lon="-72.945570000">
<ele>0</ele>
<time>2026-09-04T07:26:53Z</time>
</trkpt>
<trkpt lat="46.477560000" lon="-72.945420000">
<ele>0</ele>
<time>2026-09-04T07:26:54Z</time>
</trkpt>
<trkpt lat="46.476500000" lon="-72.945120000">
<ele>0</ele>
<time>2026-09-04T07:26:55Z</time>
</trkpt>
<trkpt lat="46.476010000" lon="-72.944780000">
<ele>0</ele>
<time>2026-09-04T07:26:56Z</time>
</trkpt>
<trkpt lat="46.475690000" lon="-72.944540000">
<ele>0</ele>
<time>2026-09-04T07:26:57Z</time>
</trkpt>
<trkpt lat="46.475360000" lon="-72.944310000">
<ele>0</ele>
<time>2026-09-04T07:26:58Z</time>
</trkpt>
<trkpt lat="46.475190000" lon="-72.944260000">
<ele>0</ele>
<time>2026-09-04T07:26:59Z</time>
</trkpt>
<trkpt lat="46.475010000" lon="-72.944240000">
<ele>0</ele>
<time>2026-09-04T07:27:00Z</time>
</trkpt>
<trkpt lat="46.474840000" lon="-72.944260000">
<ele>0</ele>
<time>2026-09-04T07:27:01Z</time>
</trkpt>
<trkpt lat="46.474660000" lon="-72.944330000">
<ele>0</ele>
<time>2026-09-04T07:27:02Z</time>
</trkpt>
<trkpt lat="46.474410000" lon="-72.944700000">
<ele>0</ele>
<time>2026-09-04T07:27:03Z</time>
</trkpt>
<trkpt lat="46.473520000" lon="-72.945990000">
<ele>0</ele>
<time>2026-09-04T07:27:04Z</time>
</trkpt>
<trkpt lat="46.472560000" lon="-72.947390000">
<ele>0</ele>
<time>2026-09-04T07:27:05Z</time>
</trkpt>
<trkpt lat="46.472350000" lon="-72.947690000">
<ele>0</ele>
<time>2026-09-04T07:27:06Z</time>
</trkpt>
<trkpt lat="46.472210000" lon="-72.947740000">
<ele>0</ele>
<time>2026-09-04T07:27:07Z</time>
</trkpt>
<trkpt lat="46.472000000" lon="-72.947740000">
<ele>0</ele>
<time>2026-09-04T07:27:08Z</time>
</trkpt>
<trkpt lat="46.471280000" lon="-72.946740000">
<ele>0</ele>
<time>2026-09-04T07:27:09Z</time>
</trkpt>
<trkpt lat="46.471020000" lon="-72.946380000">
<ele>0</ele>
<time>2026-09-04T07:27:10Z</time>
</trkpt>
<trkpt lat="46.469980000" lon="-72.944940000">
<ele>0</ele>
<time>2026-09-04T07:27:11Z</time>
</trkpt>
<trkpt lat="46.469330000" lon="-72.944030000">
<ele>0</ele>
<time>2026-09-04T07:27:12Z</time>
</trkpt>
<trkpt lat="46.469080000" lon="-72.943680000">
<ele>0</ele>
<time>2026-09-04T07:27:13Z</time>
</trkpt>
<trkpt lat="46.469080000" lon="-72.943680000">
<ele>0</ele>
<time>2026-09-04T07:27:14Z</time>
</trkpt>
<trkpt lat="46.465310000" lon="-72.938450000">
<ele>0</ele>
<time>2026-09-04T07:27:15Z</time>
</trkpt>
<trkpt lat="46.464280000" lon="-72.937020000">
<ele>0</ele>
<time>2026-09-04T07:27:16Z</time>
</trkpt>
<trkpt lat="46.464040000" lon="-72.936730000">
<ele>0</ele>
<time>2026-09-04T07:27:17Z</time>
</trkpt>
<trkpt lat="46.463710000" lon="-72.936620000">
<ele>0</ele>
<time>2026-09-04T07:27:18Z</time>
</trkpt>
<trkpt lat="46.463470000" lon="-72.936640000">
<ele>0</ele>
<time>2026-09-04T07:27:19Z</time>
</trkpt>
<trkpt lat="46.463330000" lon="-72.936750000">
<ele>0</ele>
<time>2026-09-04T07:27:20Z</time>
</trkpt>
<trkpt lat="46.462320000" lon="-72.938280000">
<ele>0</ele>
<time>2026-09-04T07:27:21Z</time>
</trkpt>
<trkpt lat="46.461460000" lon="-72.939610000">
<ele>0</ele>
<time>2026-09-04T07:27:22Z</time>
</trkpt>
<trkpt lat="46.459230000" lon="-72.943020000">
<ele>0</ele>
<time>2026-09-04T07:27:23Z</time>
</trkpt>
<trkpt lat="46.459140000" lon="-72.943150000">
<ele>0</ele>
<time>2026-09-04T07:27:24Z</time>
</trkpt>
<trkpt lat="46.459140000" lon="-72.943150000">
<ele>0</ele>
<time>2026-09-04T07:27:25Z</time>
</trkpt>
<trkpt lat="46.458860000" lon="-72.943590000">
<ele>0</ele>
<time>2026-09-04T07:27:26Z</time>
</trkpt>
<trkpt lat="46.458600000" lon="-72.943980000">
<ele>0</ele>
<time>2026-09-04T07:27:27Z</time>
</trkpt>
<trkpt lat="46.458210000" lon="-72.944410000">
<ele>0</ele>
<time>2026-09-04T07:27:28Z</time>
</trkpt>
<trkpt lat="46.458120000" lon="-72.944480000">
<ele>0</ele>
<time>2026-09-04T07:27:29Z</time>
</trkpt>
<trkpt lat="46.457960000" lon="-72.944540000">
<ele>0</ele>
<time>2026-09-04T07:27:30Z</time>
</trkpt>
<trkpt lat="46.457830000" lon="-72.944540000">
<ele>0</ele>
<time>2026-09-04T07:27:31Z</time>
</trkpt>
<trkpt lat="46.457570000" lon="-72.944350000">
<ele>0</ele>
<time>2026-09-04T07:27:32Z</time>
</trkpt>
<trkpt lat="46.457440000" lon="-72.944220000">
<ele>0</ele>
<time>2026-09-04T07:27:33Z</time>
</trkpt>
<trkpt lat="46.456860000" lon="-72.943420000">
<ele>0</ele>
<time>2026-09-04T07:27:34Z</time>
</trkpt>
<trkpt lat="46.455950000" lon="-72.942160000">
<ele>0</ele>
<time>2026-09-04T07:27:35Z</time>
</trkpt>
<trkpt lat="46.455430000" lon="-72.941440000">
<ele>0</ele>
<time>2026-09-04T07:27:36Z</time>
</trkpt>
<trkpt lat="46.455280000" lon="-72.941290000">
<ele>0</ele>
<time>2026-09-04T07:27:37Z</time>
</trkpt>
<trkpt lat="46.455130000" lon="-72.941210000">
<ele>0</ele>
<time>2026-09-04T07:27:38Z</time>
</trkpt>
<trkpt lat="46.454980000" lon="-72.941210000">
<ele>0</ele>
<time>2026-09-04T07:27:39Z</time>
</trkpt>
<trkpt lat="46.454400000" lon="-72.941360000">
<ele>0</ele>
<time>2026-09-04T07:27:40Z</time>
</trkpt>
<trkpt lat="46.454400000" lon="-72.941360000">
<ele>0</ele>
<time>2026-09-04T07:27:41Z</time>
</trkpt>
<trkpt lat="46.453570000" lon="-72.941560000">
<ele>0</ele>
<time>2026-09-04T07:27:42Z</time>
</trkpt>
<trkpt lat="46.453230000" lon="-72.941570000">
<ele>0</ele>
<time>2026-09-04T07:27:43Z</time>
</trkpt>
<trkpt lat="46.452940000" lon="-72.941520000">
<ele>0</ele>
<time>2026-09-04T07:27:44Z</time>
</trkpt>
<trkpt lat="46.452670000" lon="-72.941280000">
<ele>0</ele>
<time>2026-09-04T07:27:45Z</time>
</trkpt>
<trkpt lat="46.452540000" lon="-72.941100000">
<ele>0</ele>
<time>2026-09-04T07:27:46Z</time>
</trkpt>
<trkpt lat="46.451490000" lon="-72.939650000">
<ele>0</ele>
<time>2026-09-04T07:27:47Z</time>
</trkpt>
<trkpt lat="46.451220000" lon="-72.939280000">
<ele>0</ele>
<time>2026-09-04T07:27:48Z</time>
</trkpt>
<trkpt lat="46.450640000" lon="-72.938320000">
<ele>0</ele>
<time>2026-09-04T07:27:49Z</time>
</trkpt>
<trkpt lat="46.450360000" lon="-72.937880000">
<ele>0</ele>
<time>2026-09-04T07:27:50Z</time>
</trkpt>
<trkpt lat="46.450160000" lon="-72.937400000">
<ele>0</ele>
<time>2026-09-04T07:27:51Z</time>
</trkpt>
<trkpt lat="46.449810000" lon="-72.936320000">
<ele>0</ele>
<time>2026-09-04T07:27:52Z</time>
</trkpt>
<trkpt lat="46.449630000" lon="-72.935730000">
<ele>0</ele>
<time>2026-09-04T07:27:53Z</time>
</trkpt>
<trkpt lat="46.449440000" lon="-72.935440000">
<ele>0</ele>
<time>2026-09-04T07:27:54Z</time>
</trkpt>
<trkpt lat="46.449300000" lon="-72.935270000">
<ele>0</ele>
<time>2026-09-04T07:27:55Z</time>
</trkpt>
<trkpt lat="46.449150000" lon="-72.935120000">
<ele>0</ele>
<time>2026-09-04T07:27:56Z</time>
</trkpt>
<trkpt lat="46.448810000" lon="-72.934940000">
<ele>0</ele>
<time>2026-09-04T07:27:57Z</time>
</trkpt>
<trkpt lat="46.448390000" lon="-72.934720000">
<ele>0</ele>
<time>2026-09-04T07:27:58Z</time>
</trkpt>
<trkpt lat="46.448150000" lon="-72.934570000">
<ele>0</ele>
<time>2026-09-04T07:27:59Z</time>
</trkpt>
<trkpt lat="46.447820000" lon="-72.934260000">
<ele>0</ele>
<time>2026-09-04T07:28:00Z</time>
</trkpt>
<trkpt lat="46.447710000" lon="-72.934110000">
<ele>0</ele>
<time>2026-09-04T07:28:01Z</time>
</trkpt>
<trkpt lat="46.447440000" lon="-72.933760000">
<ele>0</ele>
<time>2026-09-04T07:28:02Z</time>
</trkpt>
<trkpt lat="46.447170000" lon="-72.933410000">
<ele>0</ele>
<time>2026-09-04T07:28:03Z</time>
</trkpt>
<trkpt lat="46.446800000" lon="-72.932850000">
<ele>0</ele>
<time>2026-09-04T07:28:04Z</time>
</trkpt>
<trkpt lat="46.446160000" lon="-72.931890000">
<ele>0</ele>
<time>2026-09-04T07:28:05Z</time>
</trkpt>
<trkpt lat="46.444020000" lon="-72.928890000">
<ele>0</ele>
<time>2026-09-04T07:28:06Z</time>
</trkpt>
<trkpt lat="46.444020000" lon="-72.928890000">
<ele>0</ele>
<time>2026-09-04T07:28:07Z</time>
</trkpt>
<trkpt lat="46.443400000" lon="-72.928000000">
<ele>0</ele>
<time>2026-09-04T07:28:08Z</time>
</trkpt>
<trkpt lat="46.443070000" lon="-72.927380000">
<ele>0</ele>
<time>2026-09-04T07:28:09Z</time>
</trkpt>
<trkpt lat="46.442750000" lon="-72.926920000">
<ele>0</ele>
<time>2026-09-04T07:28:10Z</time>
</trkpt>
<trkpt lat="46.442250000" lon="-72.926240000">
<ele>0</ele>
<time>2026-09-04T07:28:11Z</time>
</trkpt>
<trkpt lat="46.441710000" lon="-72.925470000">
<ele>0</ele>
<time>2026-09-04T07:28:12Z</time>
</trkpt>
<trkpt lat="46.441260000" lon="-72.924780000">
<ele>0</ele>
<time>2026-09-04T07:28:13Z</time>
</trkpt>
<trkpt lat="46.441260000" lon="-72.924780000">
<ele>0</ele>
<time>2026-09-04T07:28:14Z</time>
</trkpt>
<trkpt lat="46.441150000" lon="-72.924620000">
<ele>0</ele>
<time>2026-09-04T07:28:15Z</time>
</trkpt>
<trkpt lat="46.441300000" lon="-72.923980000">
<ele>0</ele>
<time>2026-09-04T07:28:16Z</time>
</trkpt>
<trkpt lat="46.441370000" lon="-72.923700000">
<ele>0</ele>
<time>2026-09-04T07:28:17Z</time>
</trkpt>
<trkpt lat="46.441570000" lon="-72.923300000">
<ele>0</ele>
<time>2026-09-04T07:28:18Z</time>
</trkpt>
<trkpt lat="46.441880000" lon="-72.922670000">
<ele>0</ele>
<time>2026-09-04T07:28:19Z</time>
</trkpt>
<trkpt lat="46.441990000" lon="-72.922460000">
<ele>0</ele>
<time>2026-09-04T07:28:20Z</time>
</trkpt>
<trkpt lat="46.442090000" lon="-72.922360000">
<ele>0</ele>
<time>2026-09-04T07:28:21Z</time>
</trkpt>
<trkpt lat="46.442510000" lon="-72.922410000">
<ele>0</ele>
<time>2026-09-04T07:28:22Z</time>
</trkpt>
<trkpt lat="46.442680000" lon="-72.922090000">
<ele>0</ele>
<time>2026-09-04T07:28:23Z</time>
</trkpt>
<trkpt lat="46.442880000" lon="-72.921620000">
<ele>0</ele>
<time>2026-09-04T07:28:24Z</time>
</trkpt>
<trkpt lat="46.443140000" lon="-72.921240000">
<ele>0</ele>
<time>2026-09-04T07:28:25Z</time>
</trkpt>
<trkpt lat="46.444270000" lon="-72.919550000">
<ele>0</ele>
<time>2026-09-04T07:28:26Z</time>
</trkpt>
<trkpt lat="46.444960000" lon="-72.918540000">
<ele>0</ele>
<time>2026-09-04T07:28:27Z</time>
</trkpt>
<trkpt lat="46.446440000" lon="-72.916300000">
<ele>0</ele>
<time>2026-09-04T07:28:28Z</time>
</trkpt>
<trkpt lat="46.446680000" lon="-72.915710000">
<ele>0</ele>
<time>2026-09-04T07:28:29Z</time>
</trkpt>
<trkpt lat="46.446690000" lon="-72.915630000">
<ele>0</ele>
<time>2026-09-04T07:28:30Z</time>
</trkpt>
<trkpt lat="46.446690000" lon="-72.915630000">
<ele>0</ele>
<time>2026-09-04T07:28:31Z</time>
</trkpt>
<trkpt lat="46.446990000" lon="-72.913810000">
<ele>0</ele>
<time>2026-09-04T07:28:32Z</time>
</trkpt>
<trkpt lat="46.447100000" lon="-72.913180000">
<ele>0</ele>
<time>2026-09-04T07:28:33Z</time>
</trkpt>
<trkpt lat="46.447180000" lon="-72.912910000">
<ele>0</ele>
<time>2026-09-04T07:28:34Z</time>
</trkpt>
<trkpt lat="46.447350000" lon="-72.912590000">
<ele>0</ele>
<time>2026-09-04T07:28:35Z</time>
</trkpt>
<trkpt lat="46.447710000" lon="-72.912060000">
<ele>0</ele>
<time>2026-09-04T07:28:36Z</time>
</trkpt>
<trkpt lat="46.449120000" lon="-72.910040000">
<ele>0</ele>
<time>2026-09-04T07:28:37Z</time>
</trkpt>
<trkpt lat="46.450010000" lon="-72.908760000">
<ele>0</ele>
<time>2026-09-04T07:28:38Z</time>
</trkpt>
<trkpt lat="46.450420000" lon="-72.908180000">
<ele>0</ele>
<time>2026-09-04T07:28:39Z</time>
</trkpt>
<trkpt lat="46.450160000" lon="-72.907790000">
<ele>0</ele>
<time>2026-09-04T07:28:40Z</time>
</trkpt>
<trkpt lat="46.449950000" lon="-72.907500000">
<ele>0</ele>
<time>2026-09-04T07:28:41Z</time>
</trkpt>
<trkpt lat="46.449950000" lon="-72.907500000">
<ele>0</ele>
<time>2026-09-04T07:28:42Z</time>
</trkpt>
<trkpt lat="46.449360000" lon="-72.906680000">
<ele>0</ele>
<time>2026-09-04T07:28:43Z</time>
</trkpt>
<trkpt lat="46.450290000" lon="-72.904830000">
<ele>0</ele>
<time>2026-09-04T07:28:44Z</time>
</trkpt>
<trkpt lat="46.450400000" lon="-72.904620000">
<ele>0</ele>
<time>2026-09-04T07:28:45Z</time>
</trkpt>
<trkpt lat="46.450760000" lon="-72.903890000">
<ele>0</ele>
<time>2026-09-04T07:28:46Z</time>
</trkpt>
<trkpt lat="46.450760000" lon="-72.903890000">
<ele>0</ele>
<time>2026-09-04T07:28:47Z</time>
</trkpt>
<trkpt lat="46.452220000" lon="-72.900960000">
<ele>0</ele>
<time>2026-09-04T07:28:48Z</time>
</trkpt>
<trkpt lat="46.452390000" lon="-72.900620000">
<ele>0</ele>
<time>2026-09-04T07:28:49Z</time>
</trkpt>
<trkpt lat="46.452880000" lon="-72.899680000">
<ele>0</ele>
<time>2026-09-04T07:28:50Z</time>
</trkpt>
<trkpt lat="46.453180000" lon="-72.899240000">
<ele>0</ele>
<time>2026-09-04T07:28:51Z</time>
</trkpt>
<trkpt lat="46.453560000" lon="-72.898780000">
<ele>0</ele>
<time>2026-09-04T07:28:52Z</time>
</trkpt>
<trkpt lat="46.454100000" lon="-72.898250000">
<ele>0</ele>
<time>2026-09-04T07:28:53Z</time>
</trkpt>
<trkpt lat="46.454870000" lon="-72.897580000">
<ele>0</ele>
<time>2026-09-04T07:28:54Z</time>
</trkpt>
<trkpt lat="46.455960000" lon="-72.896660000">
<ele>0</ele>
<time>2026-09-04T07:28:55Z</time>
</trkpt>
<trkpt lat="46.456260000" lon="-72.896370000">
<ele>0</ele>
<time>2026-09-04T07:28:56Z</time>
</trkpt>
<trkpt lat="46.456680000" lon="-72.895910000">
<ele>0</ele>
<time>2026-09-04T07:28:57Z</time>
</trkpt>
<trkpt lat="46.456810000" lon="-72.895740000">
<ele>0</ele>
<time>2026-09-04T07:28:58Z</time>
</trkpt>
<trkpt lat="46.457360000" lon="-72.895010000">
<ele>0</ele>
<time>2026-09-04T07:28:59Z</time>
</trkpt>
<trkpt lat="46.459140000" lon="-72.892430000">
<ele>0</ele>
<time>2026-09-04T07:29:00Z</time>
</trkpt>
<trkpt lat="46.461680000" lon="-72.888740000">
<ele>0</ele>
<time>2026-09-04T07:29:01Z</time>
</trkpt>
<trkpt lat="46.464370000" lon="-72.884870000">
<ele>0</ele>
<time>2026-09-04T07:29:02Z</time>
</trkpt>
<trkpt lat="46.468020000" lon="-72.879570000">
<ele>0</ele>
<time>2026-09-04T07:29:03Z</time>
</trkpt>
<trkpt lat="46.471080000" lon="-72.875130000">
<ele>0</ele>
<time>2026-09-04T07:29:04Z</time>
</trkpt>
<trkpt lat="46.472290000" lon="-72.873380000">
<ele>0</ele>
<time>2026-09-04T07:29:05Z</time>
</trkpt>
<trkpt lat="46.472820000" lon="-72.872610000">
<ele>0</ele>
<time>2026-09-04T07:29:06Z</time>
</trkpt>
<trkpt lat="46.473440000" lon="-72.871700000">
<ele>0</ele>
<time>2026-09-04T07:29:07Z</time>
</trkpt>
<trkpt lat="46.473850000" lon="-72.871030000">
<ele>0</ele>
<time>2026-09-04T07:29:08Z</time>
</trkpt>
<trkpt lat="46.474490000" lon="-72.869890000">
<ele>0</ele>
<time>2026-09-04T07:29:09Z</time>
</trkpt>
<trkpt lat="46.474880000" lon="-72.869120000">
<ele>0</ele>
<time>2026-09-04T07:29:10Z</time>
</trkpt>
<trkpt lat="46.475290000" lon="-72.868270000">
<ele>0</ele>
<time>2026-09-04T07:29:11Z</time>
</trkpt>
<trkpt lat="46.475650000" lon="-72.867480000">
<ele>0</ele>
<time>2026-09-04T07:29:12Z</time>
</trkpt>
<trkpt lat="46.475780000" lon="-72.866990000">
<ele>0</ele>
<time>2026-09-04T07:29:13Z</time>
</trkpt>
<trkpt lat="46.475840000" lon="-72.866500000">
<ele>0</ele>
<time>2026-09-04T07:29:14Z</time>
</trkpt>
<trkpt lat="46.475840000" lon="-72.866050000">
<ele>0</ele>
<time>2026-09-04T07:29:15Z</time>
</trkpt>
<trkpt lat="46.475800000" lon="-72.865580000">
<ele>0</ele>
<time>2026-09-04T07:29:16Z</time>
</trkpt>
<trkpt lat="46.475770000" lon="-72.865370000">
<ele>0</ele>
<time>2026-09-04T07:29:17Z</time>
</trkpt>
<trkpt lat="46.476010000" lon="-72.865330000">
<ele>0</ele>
<time>2026-09-04T07:29:18Z</time>
</trkpt>
<trkpt lat="46.476180000" lon="-72.865380000">
<ele>0</ele>
<time>2026-09-04T07:29:19Z</time>
</trkpt>
<trkpt lat="46.476310000" lon="-72.865470000">
<ele>0</ele>
<time>2026-09-04T07:29:20Z</time>
</trkpt>
<trkpt lat="46.476430000" lon="-72.865600000">
<ele>0</ele>
<time>2026-09-04T07:29:21Z</time>
</trkpt>
<trkpt lat="46.476560000" lon="-72.865740000">
<ele>0</ele>
<time>2026-09-04T07:29:22Z</time>
</trkpt>
<trkpt lat="46.476590000" lon="-72.865900000">
<ele>0</ele>
<time>2026-09-04T07:29:23Z</time>
</trkpt>
<trkpt lat="46.477010000" lon="-72.866510000">
<ele>0</ele>
<time>2026-09-04T07:29:24Z</time>
</trkpt>
<trkpt lat="46.477100000" lon="-72.866600000">
<ele>0</ele>
<time>2026-09-04T07:29:25Z</time>
</trkpt>
<trkpt lat="46.477100000" lon="-72.866600000">
<ele>0</ele>
<time>2026-09-04T07:29:26Z</time>
</trkpt>
<trkpt lat="46.479160000" lon="-72.868710000">
<ele>0</ele>
<time>2026-09-04T07:29:27Z</time>
</trkpt>
<trkpt lat="46.480640000" lon="-72.870180000">
<ele>0</ele>
<time>2026-09-04T07:29:28Z</time>
</trkpt>
<trkpt lat="46.480940000" lon="-72.870480000">
<ele>0</ele>
<time>2026-09-04T07:29:29Z</time>
</trkpt>
<trkpt lat="46.481290000" lon="-72.869890000">
<ele>0</ele>
<time>2026-09-04T07:29:30Z</time>
</trkpt>
<trkpt lat="46.481770000" lon="-72.869110000">
<ele>0</ele>
<time>2026-09-04T07:29:31Z</time>
</trkpt>
<trkpt lat="46.482250000" lon="-72.868330000">
<ele>0</ele>
<time>2026-09-04T07:29:32Z</time>
</trkpt>
<trkpt lat="46.482460000" lon="-72.867980000">
<ele>0</ele>
<time>2026-09-04T07:29:33Z</time>
</trkpt>
<trkpt lat="46.482730000" lon="-72.867630000">
<ele>0</ele>
<time>2026-09-04T07:29:34Z</time>
</trkpt>
<trkpt lat="46.483130000" lon="-72.867300000">
<ele>0</ele>
<time>2026-09-04T07:29:35Z</time>
</trkpt>
<trkpt lat="46.483740000" lon="-72.866940000">
<ele>0</ele>
<time>2026-09-04T07:29:36Z</time>
</trkpt>
<trkpt lat="46.484230000" lon="-72.866640000">
<ele>0</ele>
<time>2026-09-04T07:29:37Z</time>
</trkpt>
<trkpt lat="46.484330000" lon="-72.866570000">
<ele>0</ele>
<time>2026-09-04T07:29:38Z</time>
</trkpt>
<trkpt lat="46.484380000" lon="-72.866500000">
<ele>0</ele>
<time>2026-09-04T07:29:39Z</time>
</trkpt>
<trkpt lat="46.484620000" lon="-72.866190000">
<ele>0</ele>
<time>2026-09-04T07:29:40Z</time>
</trkpt>
<trkpt lat="46.484700000" lon="-72.866080000">
<ele>0</ele>
<time>2026-09-04T07:29:41Z</time>
</trkpt>
<trkpt lat="46.484750000" lon="-72.865930000">
<ele>0</ele>
<time>2026-09-04T07:29:42Z</time>
</trkpt>
<trkpt lat="46.484780000" lon="-72.865680000">
<ele>0</ele>
<time>2026-09-04T07:29:43Z</time>
</trkpt>
<trkpt lat="46.484780000" lon="-72.865460000">
<ele>0</ele>
<time>2026-09-04T07:29:44Z</time>
</trkpt>
<trkpt lat="46.484780000" lon="-72.865360000">
<ele>0</ele>
<time>2026-09-04T07:29:45Z</time>
</trkpt>
<trkpt lat="46.484790000" lon="-72.865240000">
<ele>0</ele>
<time>2026-09-04T07:29:46Z</time>
</trkpt>
<trkpt lat="46.484820000" lon="-72.865170000">
<ele>0</ele>
<time>2026-09-04T07:29:47Z</time>
</trkpt>
<trkpt lat="46.484950000" lon="-72.864980000">
<ele>0</ele>
<time>2026-09-04T07:29:48Z</time>
</trkpt>
<trkpt lat="46.485220000" lon="-72.864640000">
<ele>0</ele>
<time>2026-09-04T07:29:49Z</time>
</trkpt>
<trkpt lat="46.485350000" lon="-72.864460000">
<ele>0</ele>
<time>2026-09-04T07:29:50Z</time>
</trkpt>
<trkpt lat="46.485720000" lon="-72.863560000">
<ele>0</ele>
<time>2026-09-04T07:29:51Z</time>
</trkpt>
<trkpt lat="46.486180000" lon="-72.862450000">
<ele>0</ele>
<time>2026-09-04T07:29:52Z</time>
</trkpt>
<trkpt lat="46.486810000" lon="-72.860860000">
<ele>0</ele>
<time>2026-09-04T07:29:53Z</time>
</trkpt>
<trkpt lat="46.487360000" lon="-72.859520000">
<ele>0</ele>
<time>2026-09-04T07:29:54Z</time>
</trkpt>
<trkpt lat="46.487730000" lon="-72.858610000">
<ele>0</ele>
<time>2026-09-04T07:29:55Z</time>
</trkpt>
<trkpt lat="46.487930000" lon="-72.858180000">
<ele>0</ele>
<time>2026-09-04T07:29:56Z</time>
</trkpt>
<trkpt lat="46.488050000" lon="-72.857910000">
<ele>0</ele>
<time>2026-09-04T07:29:57Z</time>
</trkpt>
<trkpt lat="46.488270000" lon="-72.857580000">
<ele>0</ele>
<time>2026-09-04T07:29:58Z</time>
</trkpt>
<trkpt lat="46.488780000" lon="-72.856830000">
<ele>0</ele>
<time>2026-09-04T07:29:59Z</time>
</trkpt>
<trkpt lat="46.489440000" lon="-72.855950000">
<ele>0</ele>
<time>2026-09-04T07:30:00Z</time>
</trkpt>
<trkpt lat="46.490230000" lon="-72.854880000">
<ele>0</ele>
<time>2026-09-04T07:30:01Z</time>
</trkpt>
<trkpt lat="46.490930000" lon="-72.853890000">
<ele>0</ele>
<time>2026-09-04T07:30:02Z</time>
</trkpt>
<trkpt lat="46.491940000" lon="-72.852410000">
<ele>0</ele>
<time>2026-09-04T07:30:03Z</time>
</trkpt>
<trkpt lat="46.492970000" lon="-72.850940000">
<ele>0</ele>
<time>2026-09-04T07:30:04Z</time>
</trkpt>
<trkpt lat="46.494030000" lon="-72.849530000">
<ele>0</ele>
<time>2026-09-04T07:30:05Z</time>
</trkpt>
<trkpt lat="46.494290000" lon="-72.849170000">
<ele>0</ele>
<time>2026-09-04T07:30:06Z</time>
</trkpt>
<trkpt lat="46.494680000" lon="-72.848650000">
<ele>0</ele>
<time>2026-09-04T07:30:07Z</time>
</trkpt>
<trkpt lat="46.494800000" lon="-72.848440000">
<ele>0</ele>
<time>2026-09-04T07:30:08Z</time>
</trkpt>
<trkpt lat="46.494910000" lon="-72.848230000">
<ele>0</ele>
<time>2026-09-04T07:30:09Z</time>
</trkpt>
<trkpt lat="46.495070000" lon="-72.847760000">
<ele>0</ele>
<time>2026-09-04T07:30:10Z</time>
</trkpt>
<trkpt lat="46.495110000" lon="-72.847440000">
<ele>0</ele>
<time>2026-09-04T07:30:11Z</time>
</trkpt>
<trkpt lat="46.495060000" lon="-72.846730000">
<ele>0</ele>
<time>2026-09-04T07:30:12Z</time>
</trkpt>
<trkpt lat="46.495030000" lon="-72.846470000">
<ele>0</ele>
<time>2026-09-04T07:30:13Z</time>
</trkpt>
<trkpt lat="46.495010000" lon="-72.846340000">
<ele>0</ele>
<time>2026-09-04T07:30:14Z</time>
</trkpt>
<trkpt lat="46.494860000" lon="-72.846010000">
<ele>0</ele>
<time>2026-09-04T07:30:15Z</time>
</trkpt>
<trkpt lat="46.494660000" lon="-72.845590000">
<ele>0</ele>
<time>2026-09-04T07:30:16Z</time>
</trkpt>
<trkpt lat="46.494470000" lon="-72.845220000">
<ele>0</ele>
<time>2026-09-04T07:30:17Z</time>
</trkpt>
<trkpt lat="46.494310000" lon="-72.844990000">
<ele>0</ele>
<time>2026-09-04T07:30:18Z</time>
</trkpt>
<trkpt lat="46.494040000" lon="-72.844630000">
<ele>0</ele>
<time>2026-09-04T07:30:19Z</time>
</trkpt>
<trkpt lat="46.493520000" lon="-72.843920000">
<ele>0</ele>
<time>2026-09-04T07:30:20Z</time>
</trkpt>
<trkpt lat="46.492980000" lon="-72.843220000">
<ele>0</ele>
<time>2026-09-04T07:30:21Z</time>
</trkpt>
<trkpt lat="46.491350000" lon="-72.841180000">
<ele>0</ele>
<time>2026-09-04T07:30:22Z</time>
</trkpt>
<trkpt lat="46.490970000" lon="-72.840700000">
<ele>0</ele>
<time>2026-09-04T07:30:23Z</time>
</trkpt>
<trkpt lat="46.490970000" lon="-72.840700000">
<ele>0</ele>
<time>2026-09-04T07:30:24Z</time>
</trkpt>
<trkpt lat="46.489940000" lon="-72.839410000">
<ele>0</ele>
<time>2026-09-04T07:30:25Z</time>
</trkpt>
<trkpt lat="46.489560000" lon="-72.838940000">
<ele>0</ele>
<time>2026-09-04T07:30:26Z</time>
</trkpt>
<trkpt lat="46.490010000" lon="-72.838280000">
<ele>0</ele>
<time>2026-09-04T07:30:27Z</time>
</trkpt>
<trkpt lat="46.490380000" lon="-72.837720000">
<ele>0</ele>
<time>2026-09-04T07:30:28Z</time>
</trkpt>
<trkpt lat="46.490570000" lon="-72.837440000">
<ele>0</ele>
<time>2026-09-04T07:30:29Z</time>
</trkpt>
<trkpt lat="46.490570000" lon="-72.837440000">
<ele>0</ele>
<time>2026-09-04T07:30:30Z</time>
</trkpt>
<trkpt lat="46.491500000" lon="-72.836050000">
<ele>0</ele>
<time>2026-09-04T07:30:31Z</time>
</trkpt>
<trkpt lat="46.491570000" lon="-72.835900000">
<ele>0</ele>
<time>2026-09-04T07:30:32Z</time>
</trkpt>
<trkpt lat="46.491580000" lon="-72.835800000">
<ele>0</ele>
<time>2026-09-04T07:30:33Z</time>
</trkpt>
<trkpt lat="46.491740000" lon="-72.835630000">
<ele>0</ele>
<time>2026-09-04T07:30:34Z</time>
</trkpt>
<trkpt lat="46.492650000" lon="-72.836900000">
<ele>0</ele>
<time>2026-09-04T07:30:35Z</time>
</trkpt>
<trkpt lat="46.493080000" lon="-72.837520000">
<ele>0</ele>
<time>2026-09-04T07:30:36Z</time>
</trkpt>
<trkpt lat="46.494070000" lon="-72.836080000">
<ele>0</ele>
<time>2026-09-04T07:30:37Z</time>
</trkpt>
<trkpt lat="46.494070000" lon="-72.836080000">
<ele>0</ele>
<time>2026-09-04T07:30:38Z</time>
</trkpt>
<trkpt lat="46.497090000" lon="-72.831660000">
<ele>0</ele>
<time>2026-09-04T07:30:39Z</time>
</trkpt>
<trkpt lat="46.498140000" lon="-72.830120000">
<ele>0</ele>
<time>2026-09-04T07:30:40Z</time>
</trkpt>
<trkpt lat="46.499020000" lon="-72.831440000">
<ele>0</ele>
<time>2026-09-04T07:30:41Z</time>
</trkpt>
<trkpt lat="46.499520000" lon="-72.832180000">
<ele>0</ele>
<time>2026-09-04T07:30:42Z</time>
</trkpt>
<trkpt lat="46.499570000" lon="-72.832230000">
<ele>0</ele>
<time>2026-09-04T07:30:43Z</time>
</trkpt>
<trkpt lat="46.499610000" lon="-72.832230000">
<ele>0</ele>
<time>2026-09-04T07:30:44Z</time>
</trkpt>
<trkpt lat="46.499670000" lon="-72.832170000">
<ele>0</ele>
<time>2026-09-04T07:30:45Z</time>
</trkpt>
<trkpt lat="46.499740000" lon="-72.832050000">
<ele>0</ele>
<time>2026-09-04T07:30:46Z</time>
</trkpt>
<trkpt lat="46.499910000" lon="-72.831890000">
<ele>0</ele>
<time>2026-09-04T07:30:47Z</time>
</trkpt>
<trkpt lat="46.500120000" lon="-72.831750000">
<ele>0</ele>
<time>2026-09-04T07:30:48Z</time>
</trkpt>
<trkpt lat="46.500290000" lon="-72.831540000">
<ele>0</ele>
<time>2026-09-04T07:30:49Z</time>
</trkpt>
</trkseg>
</trk>
</gpx>
